Observation data for Stratford on 05/04/2021      Previous  Date  Next       Current Mesonet Observations  Soil Data  Daily Summary Page  Observations in Plain Language
KST4 040500Z 36014KT 09/06 A3008 RMK A01 T00870060  RH  083%=      5-min Rain = 0
KST4 040501Z 00016KT 09/06 A3008 RMK A01 T00880060  RH  083%=      5-min Rain = 0
KST4 040502Z 00015KT 09/06 A3009 RMK A01 T00870058  RH  082%=      5-min Rain = 0
KST4 040503Z 00014KT 09/06 A3009 RMK A01 T00880059  RH  082%=      5-min Rain = 0
KST4 040504Z 00015KT 09/06 A3009 RMK A01 T00880060  RH  083%=      5-min Rain = 0
KST4 040505Z 36015KT 09/06 A3009 RMK A01 T00870059  RH  082%=      5-min Rain = 0
KST4 040506Z 00016KT 09/06 A3009 RMK A01 T00870057  RH  081%=      5-min Rain = 0
KST4 040507Z 00015KT 09/06 A3009 RMK A01 T00870057  RH  081%=      5-min Rain = 0
KST4 040508Z 01015KT 09/06 A3009 RMK A01 T00870057  RH  082%=      5-min Rain = 0
KST4 040509Z 01014KT 09/06 A3009 RMK A01 T00870058  RH  082%=      5-min Rain = 0
KST4 040510Z 00015KT 09/06 A3009 RMK A01 T00870057  RH  082%=      5-min Rain = 0
KST4 040511Z 00016KT 09/06 A3009 RMK A01 T00870057  RH  082%=      5-min Rain = 0
KST4 040512Z 36016KT 09/06 A3009 RMK A01 T00870056  RH  081%=      5-min Rain = 0
KST4 040513Z 00014KT 09/06 A3009 RMK A01 T00870056  RH  081%=      5-min Rain = 0
KST4 040514Z 00016KT 09/06 A3009 RMK A01 T00870056  RH  081%=      5-min Rain = 0
KST4 040515Z 36015KT 09/06 A3009 RMK A01 T00870056  RH  081%=      5-min Rain = 0
KST4 040516Z 01015KT 09/06 A3009 RMK A01 T00870056  RH  081%=      5-min Rain = 0
KST4 040517Z 36013KT 09/06 A3009 RMK A01 T00870057  RH  082%=      5-min Rain = 0
KST4 040518Z 00015KT 09/06 A3009 RMK A01 T00860055  RH  081%=      5-min Rain = 0
KST4 040519Z 36015KT 09/06 A3009 RMK A01 T00860055  RH  081%=      5-min Rain = 0
KST4 040520Z 35016KT 09/05 A3009 RMK A01 T00860054  RH  081%=      5-min Rain = 0
KST4 040521Z 36016KT 09/05 A3009 RMK A01 T00860053  RH  080%=      5-min Rain = 0
KST4 040522Z 36014KT 09/05 A3009 RMK A01 T00860054  RH  080%=      5-min Rain = 0
KST4 040523Z 36014G19KT 09/05 A3009 RMK A01 T00860054  RH  080%=      5-min Rain = 0
KST4 040524Z 36014G21KT 09/06 A3009 RMK A01 T00860055  RH  081%=      5-min Rain = 0
KST4 040525Z 36018KT 09/05 A3009 RMK A01 T00860054  RH  080%=      5-min Rain = 0
KST4 040526Z 00017KT 09/05 A3009 RMK A01 T00860052  RH  079%=      5-min Rain = 0
KST4 040527Z 00017KT 09/05 A3009 RMK A01 T00860051  RH  079%=      5-min Rain = 0
KST4 040528Z 00017KT 09/05 A3009 RMK A01 T00860051  RH  079%=      5-min Rain = 0
KST4 040529Z 00016KT 09/05 A3009 RMK A01 T00860052  RH  079%=      5-min Rain = 0
KST4 040530Z 00015KT 09/05 A3009 RMK A01 T00860052  RH  079%=      5-min Rain = 0
KST4 040531Z 00016KT 09/05 A3009 RMK A01 T00860052  RH  079%=      5-min Rain = 0
KST4 040532Z 00016KT 09/05 A3009 RMK A01 T00860052  RH  079%=      5-min Rain = 0
KST4 040533Z 00014KT 09/05 A3009 RMK A01 T00860052  RH  079%=      5-min Rain = 0
KST4 040534Z 00016KT 09/05 A3009 RMK A01 T00860053  RH  080%=      5-min Rain = 0
KST4 040535Z 00016KT 09/05 A3009 RMK A01 T00850052  RH  079%=      5-min Rain = 0
KST4 040536Z 00014KT 09/05 A3009 RMK A01 T00850052  RH  080%=      5-min Rain = 0
KST4 040537Z 00015KT 09/05 A3009 RMK A01 T00850052  RH  080%=      5-min Rain = 0
KST4 040538Z 00015KT 09/05 A3009 RMK A01 T00850052  RH  080%=      5-min Rain = 0
KST4 040539Z 36015KT 09/05 A3009 RMK A01 T00850052  RH  080%=      5-min Rain = 0
KST4 040540Z 00016KT 09/05 A3009 RMK A01 T00850051  RH  079%=      5-min Rain = 0
KST4 040541Z 00017KT 09/05 A3009 RMK A01 T00850050  RH  079%=      5-min Rain = 0
KST4 040542Z 00013KT 09/05 A3009 RMK A01 T00850050  RH  079%=      5-min Rain = 0
KST4 040543Z 36013KT 09/05 A3009 RMK A01 T00850052  RH  079%=      5-min Rain = 0
KST4 040544Z 36015KT 09/05 A3009 RMK A01 T00850052  RH  080%=      5-min Rain = 0
KST4 040545Z 36015KT 09/05 A3009 RMK A01 T00850052  RH  080%=      5-min Rain = 0
KST4 040546Z 36014KT 09/05 A3009 RMK A01 T00850051  RH  079%=      5-min Rain = 0
KST4 040547Z 36013KT 09/05 A3009 RMK A01 T00850052  RH  080%=      5-min Rain = 0
KST4 040548Z 36014KT 09/05 A3009 RMK A01 T00850052  RH  080%=      5-min Rain = 0
KST4 040549Z 36013KT 09/05 A3009 RMK A01 T00850052  RH  080%=      5-min Rain = 0
KST4 040550Z 35015KT 09/05 A3009 RMK A01 T00850051  RH  080%=      5-min Rain = 0
KST4 040551Z 36015G20KT 09/05 A3009 RMK A01 T00850051  RH  080%=      5-min Rain = 0
KST4 040552Z 36014KT 09/05 A3009 RMK A01 T00850050  RH  079%=      5-min Rain = 0
KST4 040553Z 00015KT 09/05 A3009 RMK A01 T00850050  RH  079%=      5-min Rain = 0
KST4 040554Z 36016KT 09/05 A3009 RMK A01 T00850050  RH  079%=      5-min Rain = 0
KST4 040555Z 36013KT 08/05 A3009 RMK A01 T00840050  RH  079%=      5-min Rain = 0
KST4 040556Z 36013KT 08/05 A3009 RMK A01 T00840052  RH  080%=      5-min Rain = 0
KST4 040557Z 36013G18KT 08/05 A3009 RMK A01 T00840052  RH  080%=      5-min Rain = 0
KST4 040558Z 36015KT 08/05 A3009 RMK A01 T00840052  RH  080%=      5-min Rain = 0
KST4 040559Z 36014KT 08/05 A3009 RMK A01 T00840051  RH  080%=      5-min Rain = 0
KST4 040600Z 36014KT 08/05 A3009 RMK A01 T00840051  RH  079%=      5-min Rain = 0
KST4 040601Z 36016KT 08/05 A3009 RMK A01 T00840051  RH  079%=      5-min Rain = 0
KST4 040602Z 35015KT 08/05 A3009 RMK A01 T00840050  RH  079%=      5-min Rain = 0
KST4 040603Z 36016KT 08/05 A3009 RMK A01 T00840049  RH  079%=      5-min Rain = 0
KST4 040604Z 36015KT 08/05 A3009 RMK A01 T00840048  RH  078%=      5-min Rain = 0
KST4 040605Z 36014KT 08/05 A3009 RMK A01 T00840049  RH  079%=      5-min Rain = 0
KST4 040606Z 00013KT 08/05 A3009 RMK A01 T00840050  RH  079%=      5-min Rain = 0
KST4 040607Z 35013KT 08/05 A3009 RMK A01 T00840051  RH  079%=      5-min Rain = 0
KST4 040608Z 36013KT 08/05 A3009 RMK A01 T00840051  RH  080%=      5-min Rain = 0
KST4 040609Z 36013KT 08/05 A3009 RMK A01 T00840051  RH  080%=      5-min Rain = 0
KST4 040610Z 36013KT 08/05 A301 RMK A01 T00840051  RH  080%=      5-min Rain = 0
KST4 040611Z 36013KT 08/05 A301 RMK A01 T00840050  RH  080%=      5-min Rain = 0
KST4 040612Z 36015KT 08/05 A301 RMK A01 T00840050  RH  079%=      5-min Rain = 0
KST4 040613Z 36014KT 08/05 A301 RMK A01 T00840050  RH  079%=      5-min Rain = 0
KST4 040614Z 36015KT 08/05 A301 RMK A01 T00840050  RH  079%=      5-min Rain = 0
KST4 040615Z 36013KT 08/05 A301 RMK A01 T00840050  RH  079%=      5-min Rain = 0
KST4 040616Z 36015KT 08/05 A301 RMK A01 T00840050  RH  079%=      5-min Rain = 0
KST4 040617Z 36012KT 08/05 A301 RMK A01 T00840050  RH  079%=      5-min Rain = 0
KST4 040618Z 36013KT 08/05 A301 RMK A01 T00830051  RH  080%=      5-min Rain = 0
KST4 040619Z 36013KT 08/05 A301 RMK A01 T00830050  RH  080%=      5-min Rain = 0
KST4 040620Z 36012KT 08/05 A301 RMK A01 T00830051  RH  080%=      5-min Rain = 0
KST4 040621Z 00013KT 08/05 A301 RMK A01 T00830051  RH  080%=      5-min Rain = 0
KST4 040622Z 36013KT 08/05 A301 RMK A01 T00830050  RH  080%=      5-min Rain = 0
KST4 040623Z 36014KT 08/05 A301 RMK A01 T00830050  RH  079%=      5-min Rain = 0
KST4 040624Z 36014KT 08/05 A301 RMK A01 T00830049  RH  079%=      5-min Rain = 0
KST4 040625Z 36012KT 08/05 A301 RMK A01 T00830049  RH  079%=      5-min Rain = 0
KST4 040626Z 36012KT 08/05 A301 RMK A01 T00830049  RH  079%=      5-min Rain = 0
KST4 040627Z 36013KT 08/05 A301 RMK A01 T00830049  RH  079%=      5-min Rain = 0
KST4 040628Z 36013KT 08/05 A301 RMK A01 T00830049  RH  079%=      5-min Rain = 0
KST4 040629Z 36011KT 08/05 A301 RMK A01 T00830049  RH  079%=      5-min Rain = 0
KST4 040630Z 35012KT 08/05 A301 RMK A01 T00830050  RH  079%=      5-min Rain = 0
KST4 040631Z 36012KT 08/05 A301 RMK A01 T00830050  RH  079%=      5-min Rain = 0
KST4 040632Z 00013KT 08/05 A301 RMK A01 T00830048  RH  079%=      5-min Rain = 0
KST4 040633Z 36012KT 08/05 A301 RMK A01 T00830049  RH  079%=      5-min Rain = 0
KST4 040634Z 36013KT 08/05 A301 RMK A01 T00830049  RH  079%=      5-min Rain = 0
KST4 040635Z 00012KT 08/05 A301 RMK A01 T00830048  RH  079%=      5-min Rain = 0
KST4 040636Z 35013KT 08/05 A301 RMK A01 T00830049  RH  079%=      5-min Rain = 0
KST4 040637Z 35014KT 08/05 A301 RMK A01 T00830049  RH  079%=      5-min Rain = 0
KST4 040638Z 36013KT 08/05 A301 RMK A01 T00830049  RH  079%=      5-min Rain = 0
KST4 040639Z 36011KT 08/05 A301 RMK A01 T00830049  RH  079%=      5-min Rain = 0
KST4 040640Z 35012KT 08/05 A301 RMK A01 T00830050  RH  080%=      5-min Rain = 0
KST4 040641Z 00012KT 08/05 A301 RMK A01 T00830050  RH  080%=      5-min Rain = 0
KST4 040642Z 36012KT 08/05 A301 RMK A01 T00820049  RH  080%=      5-min Rain = 0
KST4 040643Z 36012KT 08/05 A301 RMK A01 T00820050  RH  080%=      5-min Rain = 0
KST4 040644Z 00011KT 08/05 A301 RMK A01 T00820049  RH  080%=      5-min Rain = 0
KST4 040645Z 36011KT 08/05 A301 RMK A01 T00820050  RH  080%=      5-min Rain = 0
KST4 040646Z 00011KT 08/05 A301 RMK A01 T00820050  RH  080%=      5-min Rain = 0
KST4 040647Z 00010KT 08/05 A301 RMK A01 T00820050  RH  080%=      5-min Rain = 0
KST4 040648Z 00011KT 08/05 A301 RMK A01 T00820051  RH  081%=      5-min Rain = 0
KST4 040649Z 00012KT 08/05 A301 RMK A01 T00820051  RH  080%=      5-min Rain = 0
KST4 040650Z 00013KT 08/05 A301 RMK A01 T00820049  RH  080%=      5-min Rain = 0
KST4 040651Z 00014KT 08/05 A301 RMK A01 T00830048  RH  079%=      5-min Rain = 0
KST4 040652Z 00012KT 08/05 A301 RMK A01 T00830049  RH  079%=      5-min Rain = 0
KST4 040653Z 00013KT 08/05 A301 RMK A01 T00830049  RH  079%=      5-min Rain = 0
KST4 040654Z 00012KT 08/05 A301 RMK A01 T00830049  RH  079%=      5-min Rain = 0
KST4 040655Z 00011KT 08/05 A301 RMK A01 T00830049  RH  079%=      5-min Rain = 0
KST4 040656Z 00012KT 08/05 A301 RMK A01 T00830050  RH  080%=      5-min Rain = 0
KST4 040657Z 00011KT 08/05 A301 RMK A01 T00830050  RH  080%=      5-min Rain = 0
KST4 040658Z 00010KT 08/05 A301 RMK A01 T00830051  RH  080%=      5-min Rain = 0
KST4 040659Z 00012KT 08/05 A301 RMK A01 T00820050  RH  080%=      5-min Rain = 0
KST4 040700Z 36011KT 08/05 A301 RMK A01 T00820049  RH  080%=      5-min Rain = 0
KST4 040701Z 00011KT 08/05 A301 RMK A01 T00820049  RH  080%=      5-min Rain = 0
KST4 040702Z 00011KT 08/05 A301 RMK A01 T00820050  RH  080%=      5-min Rain = 0
KST4 040703Z 36010KT 08/05 A301 RMK A01 T00820050  RH  080%=      5-min Rain = 0
KST4 040704Z 00011KT 08/05 A301 RMK A01 T00820050  RH  080%=      5-min Rain = 0
KST4 040705Z 00011KT 08/05 A301 RMK A01 T00820050  RH  080%=      5-min Rain = 0
KST4 040706Z 00010KT 08/05 A301 RMK A01 T00820050  RH  080%=      5-min Rain = 0
KST4 040707Z 36011KT 08/05 A301 RMK A01 T00820050  RH  080%=      5-min Rain = 0
KST4 040708Z 00011KT 08/05 A301 RMK A01 T00820051  RH  080%=      5-min Rain = 0
KST4 040709Z 36010KT 08/05 A301 RMK A01 T00820050  RH  081%=      5-min Rain = 0
KST4 040710Z 00010KT 08/05 A301 RMK A01 T00820051  RH  081%=      5-min Rain = 0
KST4 040711Z 36010KT 08/05 A301 RMK A01 T00810050  RH  081%=      5-min Rain = 0
KST4 040712Z 36010KT 08/05 A301 RMK A01 T00810051  RH  081%=      5-min Rain = 0
KST4 040713Z 36011KT 08/05 A301 RMK A01 T00810050  RH  081%=      5-min Rain = 0
KST4 040714Z 36010KT 08/05 A301 RMK A01 T00820050  RH  081%=      5-min Rain = 0
KST4 040715Z 36010KT 08/05 A301 RMK A01 T00810051  RH  081%=      5-min Rain = 0
KST4 040716Z 36010KT 08/05 A301 RMK A01 T00810050  RH  081%=      5-min Rain = 0
KST4 040717Z 36010KT 08/05 A301 RMK A01 T00810050  RH  081%=      5-min Rain = 0
KST4 040718Z 36011KT 08/05 A301 RMK A01 T00810050  RH  081%=      5-min Rain = 0
KST4 040719Z 36011KT 08/05 A301 RMK A01 T00810049  RH  080%=      5-min Rain = 0
KST4 040720Z 36010KT 08/05 A301 RMK A01 T00810050  RH  081%=      5-min Rain = 0
KST4 040721Z 35010KT 08/05 A301 RMK A01 T00810050  RH  081%=      5-min Rain = 0
KST4 040722Z 36009KT 08/05 A301 RMK A01 T00810051  RH  081%=      5-min Rain = 0
KST4 040723Z 36010KT 08/05 A301 RMK A01 T00800051  RH  082%=      5-min Rain = 0
KST4 040724Z 36011KT 08/05 A301 RMK A01 T00800049  RH  081%=      5-min Rain = 0
KST4 040725Z 36011KT 08/05 A301 RMK A01 T00800049  RH  081%=      5-min Rain = 0
KST4 040726Z 35011KT 08/05 A301 RMK A01 T00800050  RH  081%=      5-min Rain = 0
KST4 040727Z 36011KT 08/05 A301 RMK A01 T00800050  RH  081%=      5-min Rain = 0
KST4 040728Z 36011KT 08/05 A301 RMK A01 T00800050  RH  081%=      5-min Rain = 0
KST4 040729Z 35010KT 08/05 A301 RMK A01 T00800049  RH  081%=      5-min Rain = 0
KST4 040730Z 35010KT 08/05 A301 RMK A01 T00800049  RH  081%=      5-min Rain = 0
KST4 040731Z 36010KT 08/05 A301 RMK A01 T00800049  RH  081%=      5-min Rain = 0
KST4 040732Z 35011KT 08/05 A301 RMK A01 T00800049  RH  081%=      5-min Rain = 0
KST4 040733Z 35010KT 08/05 A301 RMK A01 T00800048  RH  080%=      5-min Rain = 0
KST4 040734Z 35009KT 08/05 A301 RMK A01 T00800049  RH  081%=      5-min Rain = 0
KST4 040735Z 35009KT 08/05 A301 RMK A01 T00800050  RH  081%=      5-min Rain = 0
KST4 040736Z 35010KT 08/05 A301 RMK A01 T00800049  RH  081%=      5-min Rain = 0
KST4 040737Z 35010KT 08/05 A301 RMK A01 T00800049  RH  081%=      5-min Rain = 0
KST4 040738Z 35010KT 08/05 A301 RMK A01 T00800050  RH  081%=      5-min Rain = 0
KST4 040739Z 35010KT 08/05 A301 RMK A01 T00800050  RH  081%=      5-min Rain = 0
KST4 040740Z 35010KT 08/05 A301 RMK A01 T00790050  RH  082%=      5-min Rain = 0
KST4 040741Z 35010KT 08/05 A301 RMK A01 T00800050  RH  082%=      5-min Rain = 0
KST4 040742Z 35011KT 08/05 A301 RMK A01 T00800050  RH  082%=      5-min Rain = 0
KST4 040743Z 35011KT 08/05 A301 RMK A01 T00800049  RH  081%=      5-min Rain = 0
KST4 040744Z 35011KT 08/05 A301 RMK A01 T00800049  RH  081%=      5-min Rain = 0
KST4 040745Z 35011KT 08/05 A301 RMK A01 T00800049  RH  081%=      5-min Rain = 0
KST4 040746Z 35012KT 08/05 A301 RMK A01 T00800048  RH  080%=      5-min Rain = 0
KST4 040747Z 35011KT 08/05 A301 RMK A01 T00800048  RH  081%=      5-min Rain = 0
KST4 040748Z 35011KT 08/05 A301 RMK A01 T00800049  RH  081%=      5-min Rain = 0
KST4 040749Z 35010KT 08/05 A3009 RMK A01 T00800049  RH  081%=      5-min Rain = 0
KST4 040750Z 36010KT 08/05 A3009 RMK A01 T00790049  RH  081%=      5-min Rain = 0
KST4 040751Z 00012KT 08/05 A3009 RMK A01 T00800048  RH  080%=      5-min Rain = 0
KST4 040752Z 36010KT 08/05 A3009 RMK A01 T00800047  RH  080%=      5-min Rain = 0
KST4 040753Z 00009KT 08/05 A3009 RMK A01 T00800049  RH  081%=      5-min Rain = 0
KST4 040754Z 00009KT 08/05 A3009 RMK A01 T00800049  RH  081%=      5-min Rain = 0
KST4 040755Z 00009KT 08/05 A3009 RMK A01 T00790050  RH  081%=      5-min Rain = 0
KST4 040756Z 36010KT 08/05 A3009 RMK A01 T00800050  RH  081%=      5-min Rain = 0
KST4 040757Z 36008KT 08/05 A3009 RMK A01 T00800049  RH  081%=      5-min Rain = 0
KST4 040758Z 36008KT 08/05 A3009 RMK A01 T00800050  RH  082%=      5-min Rain = 0
KST4 040759Z 36009KT 08/05 A3009 RMK A01 T00790050  RH  082%=      5-min Rain = 0
KST4 040800Z 35009KT 08/05 A3009 RMK A01 T00790050  RH  082%=      5-min Rain = 0
KST4 040801Z 35010KT 08/05 A3009 RMK A01 T00790049  RH  081%=      5-min Rain = 0
KST4 040802Z 35011KT 08/05 A3009 RMK A01 T00780048  RH  081%=      5-min Rain = 0
KST4 040803Z 35011KT 08/05 A3009 RMK A01 T00780047  RH  081%=      5-min Rain = 0
KST4 040804Z 35012KT 08/05 A3009 RMK A01 T00790047  RH  081%=      5-min Rain = 0
KST4 040805Z 35011KT 08/05 A3009 RMK A01 T00790047  RH  081%=      5-min Rain = 0
KST4 040806Z 35011KT 08/05 A3009 RMK A01 T00790048  RH  081%=      5-min Rain = 0
KST4 040807Z 35011KT 08/05 A3009 RMK A01 T00790048  RH  081%=      5-min Rain = 0
KST4 040808Z 35011KT 08/05 A3009 RMK A01 T00790048  RH  081%=      5-min Rain = 0
KST4 040809Z 35011KT 08/05 A3009 RMK A01 T00790048  RH  081%=      5-min Rain = 0
KST4 040810Z 35009KT 08/05 A3009 RMK A01 T00790048  RH  081%=      5-min Rain = 0
KST4 040811Z 35009KT 08/05 A3009 RMK A01 T00790049  RH  082%=      5-min Rain = 0
KST4 040812Z 35010KT 08/05 A3009 RMK A01 T00780048  RH  081%=      5-min Rain = 0
KST4 040813Z 35010KT 08/05 A3009 RMK A01 T00780048  RH  081%=      5-min Rain = 0
KST4 040814Z 35011KT 08/05 A3009 RMK A01 T00780048  RH  081%=      5-min Rain = 0
KST4 040815Z 35010KT 08/05 A3009 RMK A01 T00780047  RH  081%=      5-min Rain = 0
KST4 040816Z 35010KT 08/05 A3009 RMK A01 T00780047  RH  081%=      5-min Rain = 0
KST4 040817Z 35011KT 08/05 A3009 RMK A01 T00780047  RH  081%=      5-min Rain = 0
KST4 040818Z 35011KT 08/05 A3009 RMK A01 T00780047  RH  081%=      5-min Rain = 0
KST4 040819Z 35011KT 08/05 A3009 RMK A01 T00780047  RH  081%=      5-min Rain = 0
KST4 040820Z 35012KT 08/05 A3009 RMK A01 T00780047  RH  081%=      5-min Rain = 0
KST4 040821Z 35011KT 08/05 A3009 RMK A01 T00780046  RH  080%=      5-min Rain = 0
KST4 040822Z 35009KT 08/05 A3009 RMK A01 T00780047  RH  081%=      5-min Rain = 0
KST4 040823Z 35010KT 08/05 A3009 RMK A01 T00780047  RH  081%=      5-min Rain = 0
KST4 040824Z 35009KT 08/05 A3009 RMK A01 T00780048  RH  081%=      5-min Rain = 0
KST4 040825Z 35010KT 08/05 A3009 RMK A01 T00780048  RH  081%=      5-min Rain = 0
KST4 040826Z 35010KT 08/05 A3009 RMK A01 T00780047  RH  081%=      5-min Rain = 0
KST4 040827Z 35010KT 08/05 A3009 RMK A01 T00780047  RH  081%=      5-min Rain = 0
KST4 040828Z 35010KT 08/05 A3009 RMK A01 T00780047  RH  081%=      5-min Rain = 0
KST4 040829Z 35010KT 08/05 A3009 RMK A01 T00780047  RH  081%=      5-min Rain = 0
KST4 040830Z 35010KT 08/05 A3009 RMK A01 T00780047  RH  080%=      5-min Rain = 0
KST4 040831Z 35009KT 08/05 A3009 RMK A01 T00780047  RH  081%=      5-min Rain = 0
KST4 040832Z 35009KT 08/05 A3009 RMK A01 T00780047  RH  081%=      5-min Rain = 0
KST4 040833Z 35008KT 08/05 A3009 RMK A01 T00780048  RH  081%=      5-min Rain = 0
KST4 040834Z 35010KT 08/05 A3009 RMK A01 T00780048  RH  081%=      5-min Rain = 0
KST4 040835Z 36009KT 08/05 A3009 RMK A01 T00780047  RH  081%=      5-min Rain = 0
KST4 040836Z 35010KT 08/05 A3009 RMK A01 T00780046  RH  081%=      5-min Rain = 0
KST4 040837Z 35010KT 08/05 A3009 RMK A01 T00780045  RH  080%=      5-min Rain = 0
KST4 040838Z 36010KT 08/05 A3009 RMK A01 T00780046  RH  080%=      5-min Rain = 0
KST4 040839Z 36009KT 08/05 A3009 RMK A01 T00780046  RH  080%=      5-min Rain = 0
KST4 040840Z 35010KT 08/05 A3009 RMK A01 T00780045  RH  080%=      5-min Rain = 0
KST4 040841Z 35008KT 08/05 A3009 RMK A01 T00780045  RH  080%=      5-min Rain = 0
KST4 040842Z 35008KT 08/05 A3009 RMK A01 T00780046  RH  080%=      5-min Rain = 0
KST4 040843Z 36010KT 08/05 A3009 RMK A01 T00780047  RH  081%=      5-min Rain = 0
KST4 040844Z 35009KT 08/05 A3009 RMK A01 T00780046  RH  080%=      5-min Rain = 0
KST4 040845Z 35011KT 08/05 A3009 RMK A01 T00780046  RH  080%=      5-min Rain = 0
KST4 040846Z 36009KT 08/05 A3009 RMK A01 T00780046  RH  080%=      5-min Rain = 0
KST4 040847Z 36011KT 08/05 A3009 RMK A01 T00780046  RH  080%=      5-min Rain = 0
KST4 040848Z 35010KT 08/05 A3009 RMK A01 T00780045  RH  080%=      5-min Rain = 0
KST4 040849Z 35008KT 08/05 A3009 RMK A01 T00780046  RH  080%=      5-min Rain = 0
KST4 040850Z 36008KT 08/05 A3009 RMK A01 T00780046  RH  080%=      5-min Rain = 0
KST4 040851Z 36010KT 08/05 A3009 RMK A01 T00780046  RH  080%=      5-min Rain = 0
KST4 040852Z 36009KT 08/05 A3009 RMK A01 T00780046  RH  080%=      5-min Rain = 0
KST4 040853Z 36009KT 08/05 A3009 RMK A01 T00780046  RH  080%=      5-min Rain = 0
KST4 040854Z 36009KT 08/05 A3009 RMK A01 T00780046  RH  080%=      5-min Rain = 0
KST4 040855Z 36008KT 08/05 A3009 RMK A01 T00780046  RH  081%=      5-min Rain = 0
KST4 040856Z 35009KT 08/05 A3009 RMK A01 T00780046  RH  080%=      5-min Rain = 0
KST4 040857Z 36009KT 08/05 A3009 RMK A01 T00780046  RH  080%=      5-min Rain = 0
KST4 040858Z 36010KT 08/05 A3009 RMK A01 T00780046  RH  080%=      5-min Rain = 0
KST4 040859Z 36009KT 08/05 A3009 RMK A01 T00780045  RH  080%=      5-min Rain = 0
KST4 040900Z 35009KT 08/05 A3009 RMK A01 T00780045  RH  080%=      5-min Rain = 0
KST4 040901Z 36008KT 08/05 A3009 RMK A01 T00780045  RH  080%=      5-min Rain = 0
KST4 040902Z 35009KT 08/05 A3009 RMK A01 T00780046  RH  080%=      5-min Rain = 0
KST4 040903Z 36009KT 08/05 A3009 RMK A01 T00780045  RH  080%=      5-min Rain = 0
KST4 040904Z 35009KT 08/05 A3009 RMK A01 T00780045  RH  079%=      5-min Rain = 0
KST4 040905Z 35010KT 08/04 A3009 RMK A01 T00780044  RH  079%=      5-min Rain = 0
KST4 040906Z 35009KT 08/04 A3009 RMK A01 T00780044  RH  079%=      5-min Rain = 0
KST4 040907Z 36010KT 08/04 A3009 RMK A01 T00780044  RH  079%=      5-min Rain = 0
KST4 040908Z 36010KT 08/04 A3009 RMK A01 T00780044  RH  079%=      5-min Rain = 0
KST4 040909Z 35008KT 08/04 A3009 RMK A01 T00780044  RH  079%=      5-min Rain = 0
KST4 040910Z 35009KT 08/04 A3009 RMK A01 T00780044  RH  079%=      5-min Rain = 0
KST4 040911Z 35009KT 08/05 A3009 RMK A01 T00780045  RH  080%=      5-min Rain = 0
KST4 040912Z 35010KT 08/04 A3009 RMK A01 T00770044  RH  080%=      5-min Rain = 0
KST4 040913Z 35010KT 08/04 A3009 RMK A01 T00770044  RH  080%=      5-min Rain = 0
KST4 040914Z 35009KT 08/04 A3009 RMK A01 T00770044  RH  080%=      5-min Rain = 0
KST4 040915Z 35009KT 08/04 A3009 RMK A01 T00770044  RH  080%=      5-min Rain = 0
KST4 040916Z 35009KT 08/04 A3009 RMK A01 T00760044  RH  080%=      5-min Rain = 0
KST4 040917Z 35008KT 08/04 A3009 RMK A01 T00760044  RH  080%=      5-min Rain = 0
KST4 040918Z 35008KT 08/05 A3009 RMK A01 T00760045  RH  081%=      5-min Rain = 0
KST4 040919Z 35008KT 08/05 A3009 RMK A01 T00760045  RH  081%=      5-min Rain = 0
KST4 040920Z 35008KT 08/04 A301 RMK A01 T00760044  RH  081%=      5-min Rain = 0
KST4 040921Z 35008KT 08/04 A301 RMK A01 T00750044  RH  081%=      5-min Rain = 0
KST4 040922Z 35009KT 08/04 A301 RMK A01 T00750044  RH  081%=      5-min Rain = 0
KST4 040923Z 35009KT 08/04 A301 RMK A01 T00750044  RH  080%=      5-min Rain = 0
KST4 040924Z 35008KT 08/05 A301 RMK A01 T00760045  RH  081%=      5-min Rain = 0
KST4 040925Z 35008KT 08/05 A301 RMK A01 T00760045  RH  081%=      5-min Rain = 0
KST4 040926Z 34010KT 08/05 A301 RMK A01 T00750045  RH  081%=      5-min Rain = 0
KST4 040927Z 35010KT 08/05 A301 RMK A01 T00760045  RH  081%=      5-min Rain = 0
KST4 040928Z 34009KT 08/05 A301 RMK A01 T00750045  RH  081%=      5-min Rain = 0
KST4 040929Z 34009KT 08/05 A301 RMK A01 T00750045  RH  081%=      5-min Rain = 0
KST4 040930Z 34011KT 08/04 A301 RMK A01 T00750044  RH  081%=      5-min Rain = 0
KST4 040931Z 34010KT 08/04 A301 RMK A01 T00750044  RH  081%=      5-min Rain = 0
KST4 040932Z 34011KT 08/04 A301 RMK A01 T00750044  RH  081%=      5-min Rain = 0
KST4 040933Z 34010KT 08/04 A301 RMK A01 T00750044  RH  081%=      5-min Rain = 0
KST4 040934Z 34012KT 07/05 A301 RMK A01 T00740045  RH  081%=      5-min Rain = 0
KST4 040935Z 34011KT 07/04 A301 RMK A01 T00740044  RH  081%=      5-min Rain = 0
KST4 040936Z 34011KT 07/04 A301 RMK A01 T00740044  RH  081%=      5-min Rain = 0
KST4 040937Z 34011KT 07/04 A301 RMK A01 T00740044  RH  081%=      5-min Rain = 0
KST4 040938Z 34010KT 07/04 A301 RMK A01 T00740044  RH  081%=      5-min Rain = 0
KST4 040939Z 34010KT 07/04 A301 RMK A01 T00740044  RH  081%=      5-min Rain = 0
KST4 040940Z 34010KT 07/04 A301 RMK A01 T00740044  RH  081%=      5-min Rain = 0
KST4 040941Z 34010KT 07/04 A301 RMK A01 T00740044  RH  081%=      5-min Rain = 0
KST4 040942Z 34009KT 07/04 A301 RMK A01 T00740044  RH  081%=      5-min Rain = 0
KST4 040943Z 34010KT 07/04 A301 RMK A01 T00730044  RH  082%=      5-min Rain = 0
KST4 040944Z 34010KT 07/04 A301 RMK A01 T00730044  RH  082%=      5-min Rain = 0
KST4 040945Z 34010KT 07/04 A301 RMK A01 T00730044  RH  082%=      5-min Rain = 0
KST4 040946Z 34011KT 07/04 A3011 RMK A01 T00730044  RH  082%=      5-min Rain = 0
KST4 040947Z 34010KT 07/04 A3011 RMK A01 T00730043  RH  082%=      5-min Rain = 0
KST4 040948Z 34010KT 07/04 A3011 RMK A01 T00730043  RH  082%=      5-min Rain = 0
KST4 040949Z 33011KT 07/04 A3011 RMK A01 T00730044  RH  082%=      5-min Rain = 0
KST4 040950Z 33011KT 07/04 A3011 RMK A01 T00730043  RH  082%=      5-min Rain = 0
KST4 040951Z 33011KT 07/04 A3011 RMK A01 T00730043  RH  082%=      5-min Rain = 0
KST4 040952Z 33011KT 07/04 A3011 RMK A01 T00730043  RH  082%=      5-min Rain = 0
KST4 040953Z 33011KT 07/04 A3011 RMK A01 T00730043  RH  082%=      5-min Rain = 0
KST4 040954Z 33011KT 07/04 A3011 RMK A01 T00730043  RH  081%=      5-min Rain = 0
KST4 040955Z 33012KT 07/04 A3011 RMK A01 T00730043  RH  081%=      5-min Rain = 0
KST4 040956Z 33011KT 07/04 A3011 RMK A01 T00730042  RH  081%=      5-min Rain = 0
KST4 040957Z 33012KT 07/04 A3011 RMK A01 T00730043  RH  081%=      5-min Rain = 0
KST4 040958Z 33013KT 07/04 A3011 RMK A01 T00730043  RH  081%=      5-min Rain = 0
KST4 040959Z 33013KT 07/04 A3011 RMK A01 T00730043  RH  081%=      5-min Rain = 0
KST4 041000Z 33012KT 07/04 A3011 RMK A01 T00740042  RH  081%=      5-min Rain = 0
KST4 041001Z 33013KT 07/04 A3011 RMK A01 T00740042  RH  081%=      5-min Rain = 0
KST4 041002Z 33011KT 07/04 A3011 RMK A01 T00740042  RH  080%=      5-min Rain = 0
KST4 041003Z 33011KT 07/04 A3011 RMK A01 T00740042  RH  080%=      5-min Rain = 0
KST4 041004Z 33012KT 07/04 A3011 RMK A01 T00740042  RH  080%=      5-min Rain = 0
KST4 041005Z 33012KT 07/04 A3011 RMK A01 T00740042  RH  080%=      5-min Rain = 0
KST4 041006Z 33012KT 07/04 A3011 RMK A01 T00740042  RH  080%=      5-min Rain = 0
KST4 041007Z 33011KT 07/04 A3011 RMK A01 T00740042  RH  080%=      5-min Rain = 0
KST4 041008Z 33012KT 07/04 A3011 RMK A01 T00740042  RH  080%=      5-min Rain = 0
KST4 041009Z 33013KT 07/04 A3012 RMK A01 T00740042  RH  080%=      5-min Rain = 0
KST4 041010Z 33012KT 07/04 A3012 RMK A01 T00740041  RH  079%=      5-min Rain = 0
KST4 041011Z 33012KT 08/04 A3012 RMK A01 T00750042  RH  080%=      5-min Rain = 0
KST4 041012Z 33011KT 08/04 A3012 RMK A01 T00750043  RH  080%=      5-min Rain = 0
KST4 041013Z 34012KT 07/04 A3012 RMK A01 T00740042  RH  080%=      5-min Rain = 0
KST4 041014Z 34011KT 07/04 A3012 RMK A01 T00740042  RH  080%=      5-min Rain = 0
KST4 041015Z 34012KT 07/04 A3012 RMK A01 T00740042  RH  080%=      5-min Rain = 0
KST4 041016Z 34011KT 07/04 A3012 RMK A01 T00740042  RH  080%=      5-min Rain = 0
KST4 041017Z 34012KT 07/04 A3012 RMK A01 T00740042  RH  080%=      5-min Rain = 0
KST4 041018Z 34012KT 07/04 A3012 RMK A01 T00740041  RH  080%=      5-min Rain = 0
KST4 041019Z 34011KT 07/04 A3012 RMK A01 T00740041  RH  080%=      5-min Rain = 0
KST4 041020Z 34011KT 07/04 A3012 RMK A01 T00740042  RH  080%=      5-min Rain = 0
KST4 041021Z 34013KT 07/04 A3012 RMK A01 T00740041  RH  080%=      5-min Rain = 0
KST4 041022Z 34011KT 07/04 A3012 RMK A01 T00740040  RH  079%=      5-min Rain = 0
KST4 041023Z 34011KT 07/04 A3012 RMK A01 T00740040  RH  079%=      5-min Rain = 0
KST4 041024Z 34013KT 07/04 A3012 RMK A01 T00740040  RH  079%=      5-min Rain = 0
KST4 041025Z 34012KT 07/04 A3012 RMK A01 T00740040  RH  079%=      5-min Rain = 0
KST4 041026Z 34011KT 07/04 A3012 RMK A01 T00740041  RH  079%=      5-min Rain = 0
KST4 041027Z 34010KT 07/04 A3012 RMK A01 T00740040  RH  079%=      5-min Rain = 0
KST4 041028Z 34011KT 07/04 A3012 RMK A01 T00730040  RH  080%=      5-min Rain = 0
KST4 041029Z 34012KT 07/04 A3012 RMK A01 T00730040  RH  079%=      5-min Rain = 0
KST4 041030Z 34011KT 07/04 A3012 RMK A01 T00730040  RH  079%=      5-min Rain = 0
KST4 041031Z 34011KT 07/04 A3012 RMK A01 T00730039  RH  079%=      5-min Rain = 0
KST4 041032Z 34012KT 07/04 A3012 RMK A01 T00730039  RH  079%=      5-min Rain = 0
KST4 041033Z 34012KT 07/04 A3012 RMK A01 T00730039  RH  079%=      5-min Rain = 0
KST4 041034Z 34012KT 07/04 A3012 RMK A01 T00730039  RH  079%=      5-min Rain = 0
KST4 041035Z 34011KT 07/04 A3012 RMK A01 T00720039  RH  079%=      5-min Rain = 0
KST4 041036Z 35011KT 07/04 A3012 RMK A01 T00720039  RH  079%=      5-min Rain = 0
KST4 041037Z 34013KT 07/04 A3012 RMK A01 T00720038  RH  079%=      5-min Rain = 0
KST4 041038Z 35013KT 07/04 A3012 RMK A01 T00720037  RH  078%=      5-min Rain = 0
KST4 041039Z 34011KT 07/04 A3012 RMK A01 T00720037  RH  079%=      5-min Rain = 0
KST4 041040Z 35013KT 07/04 A3012 RMK A01 T00710037  RH  079%=      5-min Rain = 0
KST4 041041Z 35013KT 07/04 A3012 RMK A01 T00710037  RH  079%=      5-min Rain = 0
KST4 041042Z 35013KT 07/04 A3012 RMK A01 T00710037  RH  078%=      5-min Rain = 0
KST4 041043Z 35013KT 07/04 A3012 RMK A01 T00710036  RH  078%=      5-min Rain = 0
KST4 041044Z 35013KT 07/04 A3012 RMK A01 T00710036  RH  078%=      5-min Rain = 0
KST4 041045Z 35014KT 07/04 A3012 RMK A01 T00710036  RH  078%=      5-min Rain = 0
KST4 041046Z 35013KT 07/04 A3012 RMK A01 T00710036  RH  078%=      5-min Rain = 0
KST4 041047Z 35011KT 07/04 A3012 RMK A01 T00710036  RH  078%=      5-min Rain = 0
KST4 041048Z 35013KT 07/04 A3012 RMK A01 T00710036  RH  079%=      5-min Rain = 0
KST4 041049Z 35015KT 07/04 A3012 RMK A01 T00710035  RH  078%=      5-min Rain = 0
KST4 041050Z 35014KT 07/03 A3012 RMK A01 T00710034  RH  077%=      5-min Rain = 0
KST4 041051Z 35015KT 07/03 A3012 RMK A01 T00710034  RH  077%=      5-min Rain = 0
KST4 041052Z 35014KT 07/03 A3012 RMK A01 T00710034  RH  077%=      5-min Rain = 0
KST4 041053Z 35011KT 07/03 A3012 RMK A01 T00710034  RH  077%=      5-min Rain = 0
KST4 041054Z 35012KT 07/03 A3012 RMK A01 T00710034  RH  078%=      5-min Rain = 0
KST4 041055Z 35013KT 07/03 A3012 RMK A01 T00710034  RH  078%=      5-min Rain = 0
KST4 041056Z 35012KT 07/03 A3012 RMK A01 T00700034  RH  077%=      5-min Rain = 0
KST4 041057Z 35012KT 07/03 A3012 RMK A01 T00700034  RH  077%=      5-min Rain = 0
KST4 041058Z 35012KT 07/03 A3012 RMK A01 T00700034  RH  078%=      5-min Rain = 0
KST4 041059Z 35012KT 07/03 A3013 RMK A01 T00700034  RH  078%=      5-min Rain = 0
KST4 041100Z 35012KT 07/03 A3013 RMK A01 T00700034  RH  078%=      5-min Rain = 0
KST4 041101Z 35011KT 07/03 A3013 RMK A01 T00700034  RH  078%=      5-min Rain = 0
KST4 041102Z 35013KT 07/03 A3013 RMK A01 T00700034  RH  078%=      5-min Rain = 0
KST4 041103Z 35012KT 07/03 A3013 RMK A01 T00700034  RH  078%=      5-min Rain = 0
KST4 041104Z 35011KT 07/03 A3013 RMK A01 T00700034  RH  078%=      5-min Rain = 0
KST4 041105Z 35013KT 07/04 A3013 RMK A01 T00700035  RH  078%=      5-min Rain = 0
KST4 041106Z 35011KT 07/03 A3013 RMK A01 T00700034  RH  078%=      5-min Rain = 0
KST4 041107Z 35012KT 07/03 A3013 RMK A01 T00700034  RH  078%=      5-min Rain = 0
KST4 041108Z 35014KT 07/03 A3013 RMK A01 T00690034  RH  078%=      5-min Rain = 0
KST4 041109Z 35013KT 07/03 A3013 RMK A01 T00700033  RH  078%=      5-min Rain = 0
KST4 041110Z 35013KT 07/03 A3013 RMK A01 T00700033  RH  078%=      5-min Rain = 0
KST4 041111Z 35014KT 07/03 A3013 RMK A01 T00690033  RH  077%=      5-min Rain = 0
KST4 041112Z 34014KT 07/03 A3013 RMK A01 T00700033  RH  077%=      5-min Rain = 0
KST4 041113Z 35013KT 07/03 A3013 RMK A01 T00700033  RH  077%=      5-min Rain = 0
KST4 041114Z 35014KT 07/03 A3013 RMK A01 T00700033  RH  077%=      5-min Rain = 0
KST4 041115Z 36013KT 07/03 A3013 RMK A01 T00700032  RH  077%=      5-min Rain = 0
KST4 041116Z 35012KT 07/03 A3013 RMK A01 T00710033  RH  077%=      5-min Rain = 0
KST4 041117Z 35013KT 07/03 A3013 RMK A01 T00700033  RH  077%=      5-min Rain = 0
KST4 041118Z 35013KT 07/03 A3013 RMK A01 T00700032  RH  077%=      5-min Rain = 0
KST4 041119Z 35013KT 07/03 A3013 RMK A01 T00700032  RH  077%=      5-min Rain = 0
KST4 041120Z 35013KT 07/03 A3013 RMK A01 T00700032  RH  077%=      5-min Rain = 0
KST4 041121Z 35013KT 07/03 A3013 RMK A01 T00700033  RH  077%=      5-min Rain = 0
KST4 041122Z 35016KT 07/03 A3013 RMK A01 T00700031  RH  076%=      5-min Rain = 0
KST4 041123Z 35014KT 07/03 A3013 RMK A01 T00700031  RH  076%=      5-min Rain = 0
KST4 041124Z 35014KT 07/03 A3013 RMK A01 T00700031  RH  076%=      5-min Rain = 0
KST4 041125Z 35015KT 07/03 A3013 RMK A01 T00700031  RH  076%=      5-min Rain = 0
KST4 041126Z 36015KT 07/03 A3013 RMK A01 T00700030  RH  076%=      5-min Rain = 0
KST4 041127Z 35014KT 07/03 A3013 RMK A01 T00700030  RH  076%=      5-min Rain = 0
KST4 041128Z 35012KT 07/03 A3013 RMK A01 T00700031  RH  076%=      5-min Rain = 0
KST4 041129Z 35013KT 07/03 A3013 RMK A01 T00700032  RH  076%=      5-min Rain = 0
KST4 041130Z 35012KT 07/03 A3013 RMK A01 T00700031  RH  076%=      5-min Rain = 0
KST4 041131Z 36013KT 07/03 A3013 RMK A01 T00700031  RH  076%=      5-min Rain = 0
KST4 041132Z 35012KT 07/03 A3013 RMK A01 T00700031  RH  076%=      5-min Rain = 0
KST4 041133Z 36014KT 07/03 A3013 RMK A01 T00700031  RH  076%=      5-min Rain = 0
KST4 041134Z 36013KT 07/03 A3014 RMK A01 T00700030  RH  076%=      5-min Rain = 0
KST4 041135Z 36014KT 07/03 A3014 RMK A01 T00700030  RH  076%=      5-min Rain = 0
KST4 041136Z 35013KT 07/03 A3014 RMK A01 T00700030  RH  076%=      5-min Rain = 0
KST4 041137Z 36014KT 07/03 A3014 RMK A01 T00700031  RH  076%=      5-min Rain = 0
KST4 041138Z 00012KT 07/03 A3014 RMK A01 T00700031  RH  076%=      5-min Rain = 0
KST4 041139Z 36012KT 07/03 A3014 RMK A01 T00710032  RH  076%=      5-min Rain = 0
KST4 041140Z 36014KT 07/03 A3014 RMK A01 T00700031  RH  076%=      5-min Rain = 0
KST4 041141Z 36014KT 07/03 A3014 RMK A01 T00700030  RH  076%=      5-min Rain = 0
KST4 041142Z 36014KT 07/03 A3014 RMK A01 T00700030  RH  075%=      5-min Rain = 0
KST4 041143Z 35013KT 07/03 A3014 RMK A01 T00710030  RH  075%=      5-min Rain = 0
KST4 041144Z 36012KT 07/03 A3014 RMK A01 T00700030  RH  075%=      5-min Rain = 0
KST4 041145Z 36012KT 07/03 A3014 RMK A01 T00700031  RH  076%=      5-min Rain = 0
KST4 041146Z 35012G17KT 07/03 A3014 RMK A01 T00700031  RH  076%=      5-min Rain = 0
KST4 041147Z 35013KT 07/03 A3014 RMK A01 T00700030  RH  076%=      5-min Rain = 0
KST4 041148Z 35011KT 07/03 A3014 RMK A01 T00700030  RH  076%=      5-min Rain = 0
KST4 041149Z 35011KT 07/03 A3014 RMK A01 T00700031  RH  076%=      5-min Rain = 0
KST4 041150Z 35013KT 07/03 A3014 RMK A01 T00700031  RH  076%=      5-min Rain = 0
KST4 041151Z 35012KT 07/03 A3014 RMK A01 T00700030  RH  076%=      5-min Rain = 0
KST4 041152Z 35011KT 07/03 A3014 RMK A01 T00700030  RH  076%=      5-min Rain = 0
KST4 041153Z 35010KT 07/03 A3014 RMK A01 T00700031  RH  076%=      5-min Rain = 0
KST4 041154Z 35011KT 07/03 A3014 RMK A01 T00700031  RH  077%=      5-min Rain = 0
KST4 041155Z 35011KT 07/03 A3014 RMK A01 T00700031  RH  077%=      5-min Rain = 0
KST4 041156Z 35012KT 07/03 A3014 RMK A01 T00690031  RH  077%=      5-min Rain = 0
KST4 041157Z 35011KT 07/03 A3014 RMK A01 T00700031  RH  076%=      5-min Rain = 0
KST4 041158Z 35011KT 07/03 A3014 RMK A01 T00700031  RH  077%=      5-min Rain = 0
KST4 041159Z 35011KT 07/03 A3014 RMK A01 T00690031  RH  077%=      5-min Rain = 0
KST4 041200Z 35011KT 07/03 A3014 RMK A01 T00700031  RH  077%=      5-min Rain = 0
KST4 041201Z 36013KT 07/03 A3015 RMK A01 T00700032  RH  077%=      5-min Rain = 0
KST4 041202Z 36011KT 07/03 A3015 RMK A01 T00700031  RH  077%=      5-min Rain = 0
KST4 041203Z 36011KT 07/03 A3015 RMK A01 T00690032  RH  077%=      5-min Rain = 0
KST4 041204Z 36012KT 07/03 A3014 RMK A01 T00700032  RH  077%=      5-min Rain = 0
KST4 041205Z 36011KT 07/03 A3014 RMK A01 T00700032  RH  077%=      5-min Rain = 0
KST4 041206Z 36010KT 07/03 A3014 RMK A01 T00690032  RH  077%=      5-min Rain = 0
KST4 041207Z 00010KT 07/03 A3014 RMK A01 T00690033  RH  078%=      5-min Rain = 0
KST4 041208Z 00011KT 07/03 A3014 RMK A01 T00680032  RH  077%=      5-min Rain = 0
KST4 041209Z 01012KT 07/03 A3014 RMK A01 T00690030  RH  076%=      5-min Rain = 0
KST4 041210Z 01011KT 07/03 A3014 RMK A01 T00690031  RH  077%=      5-min Rain = 0
KST4 041211Z 01011KT 07/03 A3014 RMK A01 T00690031  RH  077%=      5-min Rain = 0
KST4 041212Z 01011KT 07/03 A3015 RMK A01 T00690030  RH  076%=      5-min Rain = 0
KST4 041213Z 01011KT 07/03 A3015 RMK A01 T00690030  RH  076%=      5-min Rain = 0
KST4 041214Z 01012KT 07/03 A3015 RMK A01 T00690030  RH  076%=      5-min Rain = 0
KST4 041215Z 01010KT 07/03 A3015 RMK A01 T00690030  RH  076%=      5-min Rain = 0
KST4 041216Z 01012KT 07/03 A3015 RMK A01 T00690030  RH  076%=      5-min Rain = 0
KST4 041217Z 01012KT 07/03 A3015 RMK A01 T00680028  RH  075%=      5-min Rain = 0
KST4 041218Z 01012KT 07/03 A3015 RMK A01 T00690028  RH  075%=      5-min Rain = 0
KST4 041219Z 01012KT 07/03 A3015 RMK A01 T00690028  RH  075%=      5-min Rain = 0
KST4 041220Z 01012KT 07/03 A3015 RMK A01 T00690027  RH  075%=      5-min Rain = 0
KST4 041221Z 00012KT 07/03 A3015 RMK A01 T00690027  RH  075%=      5-min Rain = 0
KST4 041222Z 01011KT 07/03 A3016 RMK A01 T00690027  RH  075%=      5-min Rain = 0
KST4 041223Z 01012KT 07/03 A3015 RMK A01 T00680027  RH  075%=      5-min Rain = 0
KST4 041224Z 01010KT 07/03 A3015 RMK A01 T00680028  RH  075%=      5-min Rain = 0
KST4 041225Z 01011KT 07/03 A3015 RMK A01 T00680027  RH  075%=      5-min Rain = 0
KST4 041226Z 01013KT 07/03 A3015 RMK A01 T00670026  RH  075%=      5-min Rain = 0
KST4 041227Z 01012KT 07/02 A3015 RMK A01 T00680023  RH  073%=      5-min Rain = 0
KST4 041228Z 01012KT 07/02 A3015 RMK A01 T00680023  RH  073%=      5-min Rain = 0
KST4 041229Z 01011KT 07/02 A3015 RMK A01 T00680023  RH  073%=      5-min Rain = 0
KST4 041230Z 01011KT 07/03 A3015 RMK A01 T00670025  RH  074%=      5-min Rain = 0
KST4 041231Z 01012KT 07/02 A3015 RMK A01 T00670023  RH  074%=      5-min Rain = 0
KST4 041232Z 01011KT 07/02 A3016 RMK A01 T00670023  RH  074%=      5-min Rain = 0
KST4 041233Z 01011KT 07/02 A3016 RMK A01 T00670024  RH  074%=      5-min Rain = 0
KST4 041234Z 01012KT 07/02 A3016 RMK A01 T00670023  RH  074%=      5-min Rain = 0
KST4 041235Z 01011KT 07/02 A3016 RMK A01 T00670023  RH  074%=      5-min Rain = 0
KST4 041236Z 01011KT 07/02 A3016 RMK A01 T00670023  RH  074%=      5-min Rain = 0
KST4 041237Z 01011KT 07/02 A3016 RMK A01 T00660023  RH  074%=      5-min Rain = 0
KST4 041238Z 01012KT 07/02 A3016 RMK A01 T00660023  RH  074%=      5-min Rain = 0
KST4 041239Z 01012KT 07/02 A3016 RMK A01 T00660022  RH  074%=      5-min Rain = 0
KST4 041240Z 01010KT 07/02 A3016 RMK A01 T00660022  RH  073%=      5-min Rain = 0
KST4 041241Z 01012KT 07/02 A3016 RMK A01 T00660022  RH  073%=      5-min Rain = 0
KST4 041242Z 01011KT 07/02 A3016 RMK A01 T00660023  RH  074%=      5-min Rain = 0
KST4 041243Z 01011KT 07/02 A3016 RMK A01 T00660023  RH  074%=      5-min Rain = 0
KST4 041244Z 01011KT 07/02 A3016 RMK A01 T00660023  RH  074%=      5-min Rain = 0
KST4 041245Z 01011KT 07/02 A3016 RMK A01 T00660022  RH  074%=      5-min Rain = 0
KST4 041246Z 01010KT 07/02 A3016 RMK A01 T00660022  RH  074%=      5-min Rain = 0
KST4 041247Z 01011KT 07/02 A3017 RMK A01 T00650022  RH  074%=      5-min Rain = 0
KST4 041248Z 01011KT 07/02 A3017 RMK A01 T00650021  RH  073%=      5-min Rain = 0
KST4 041249Z 01010KT 07/02 A3017 RMK A01 T00660022  RH  074%=      5-min Rain = 0
KST4 041250Z 01010KT 07/02 A3017 RMK A01 T00660023  RH  074%=      5-min Rain = 0
KST4 041251Z 01010KT 07/02 A3017 RMK A01 T00670023  RH  074%=      5-min Rain = 0
KST4 041252Z 01010KT 07/02 A3017 RMK A01 T00670023  RH  073%=      5-min Rain = 0
KST4 041253Z 01010KT 07/02 A3017 RMK A01 T00680021  RH  072%=      5-min Rain = 0
KST4 041254Z 01010KT 07/02 A3017 RMK A01 T00690023  RH  072%=      5-min Rain = 0
KST4 041255Z 01009KT 07/02 A3017 RMK A01 T00700023  RH  072%=      5-min Rain = 0
KST4 041256Z 01010KT 07/02 A3017 RMK A01 T00700023  RH  072%=      5-min Rain = 0
KST4 041257Z 01010KT 07/02 A3017 RMK A01 T00710023  RH  071%=      5-min Rain = 0
KST4 041258Z 01010KT 07/02 A3017 RMK A01 T00710022  RH  071%=      5-min Rain = 0
KST4 041259Z 01009KT 07/02 A3017 RMK A01 T00720023  RH  071%=      5-min Rain = 0
KST4 041300Z 01009KT 07/02 A3017 RMK A01 T00730024  RH  071%=      5-min Rain = 0
KST4 041301Z 01010KT 07/02 A3017 RMK A01 T00730024  RH  071%=      5-min Rain = 0
KST4 041302Z 01009KT 07/02 A3017 RMK A01 T00730024  RH  071%=      5-min Rain = 0
KST4 041303Z 01010KT 07/03 A3017 RMK A01 T00740025  RH  071%=      5-min Rain = 0
KST4 041304Z 01009KT 07/02 A3017 RMK A01 T00740024  RH  070%=      5-min Rain = 0
KST4 041305Z 01010KT 07/02 A3017 RMK A01 T00740023  RH  070%=      5-min Rain = 0
KST4 041306Z 01010KT 07/02 A3017 RMK A01 T00740022  RH  070%=      5-min Rain = 0
KST4 041307Z 01009KT 07/02 A3017 RMK A01 T00740022  RH  069%=      5-min Rain = 0
KST4 041308Z 01011KT 07/02 A3017 RMK A01 T00740022  RH  070%=      5-min Rain = 0
KST4 041309Z 00009KT 07/02 A3017 RMK A01 T00740022  RH  070%=      5-min Rain = 0
KST4 041310Z 01010KT 07/02 A3017 RMK A01 T00740022  RH  069%=      5-min Rain = 0
KST4 041311Z 01010KT 07/02 A3018 RMK A01 T00740021  RH  069%=      5-min Rain = 0
KST4 041312Z 01009KT 07/02 A3018 RMK A01 T00740023  RH  070%=      5-min Rain = 0
KST4 041313Z 01010KT 08/02 A3018 RMK A01 T00750024  RH  070%=      5-min Rain = 0
KST4 041314Z 01010KT 08/02 A3018 RMK A01 T00760022  RH  069%=      5-min Rain = 0
KST4 041315Z 01011KT 08/02 A3018 RMK A01 T00770020  RH  067%=      5-min Rain = 0
KST4 041316Z 01011KT 08/02 A3018 RMK A01 T00770021  RH  068%=      5-min Rain = 0
KST4 041317Z 01010KT 08/02 A3018 RMK A01 T00770022  RH  068%=      5-min Rain = 0
KST4 041318Z 01010KT 08/02 A3018 RMK A01 T00780022  RH  068%=      5-min Rain = 0
KST4 041319Z 01009KT 08/02 A3018 RMK A01 T00780023  RH  068%=      5-min Rain = 0
KST4 041320Z 01010KT 08/03 A3018 RMK A01 T00790025  RH  069%=      5-min Rain = 0
KST4 041321Z 01010KT 08/02 A3018 RMK A01 T00800024  RH  068%=      5-min Rain = 0
KST4 041322Z 01011KT 08/02 A3018 RMK A01 T00800022  RH  067%=      5-min Rain = 0
KST4 041323Z 01011KT 08/02 A3018 RMK A01 T00800020  RH  066%=      5-min Rain = 0
KST4 041324Z 01012KT 08/02 A3018 RMK A01 T00800020  RH  066%=      5-min Rain = 0
KST4 041325Z 01011KT 08/02 A3019 RMK A01 T00810020  RH  066%=      5-min Rain = 0
KST4 041326Z 01011KT 08/02 A3019 RMK A01 T00810021  RH  066%=      5-min Rain = 0
KST4 041327Z 01011KT 08/02 A3019 RMK A01 T00820022  RH  066%=      5-min Rain = 0
KST4 041328Z 00010KT 08/02 A3019 RMK A01 T00820020  RH  065%=      5-min Rain = 0
KST4 041329Z 01010KT 08/02 A3019 RMK A01 T00820021  RH  065%=      5-min Rain = 0
KST4 041330Z 00013KT 08/02 A3019 RMK A01 T00830021  RH  065%=      5-min Rain = 0
KST4 041331Z 01011KT 08/02 A3019 RMK A01 T00830021  RH  065%=      5-min Rain = 0
KST4 041332Z 00012KT 08/02 A3019 RMK A01 T00840022  RH  065%=      5-min Rain = 0
KST4 041333Z 00011KT 08/02 A3019 RMK A01 T00840019  RH  064%=      5-min Rain = 0
KST4 041334Z 00009KT 08/02 A3019 RMK A01 T00840021  RH  065%=      5-min Rain = 0
KST4 041335Z 01010KT 09/03 A3019 RMK A01 T00860027  RH  066%=      5-min Rain = 0
KST4 041336Z 00011KT 09/02 A3019 RMK A01 T00870023  RH  064%=      5-min Rain = 0
KST4 041337Z 01012KT 09/02 A3019 RMK A01 T00870022  RH  064%=      5-min Rain = 0
KST4 041338Z 01013KT 09/02 A3019 RMK A01 T00870022  RH  064%=      5-min Rain = 0
KST4 041339Z 01010KT 09/02 A3019 RMK A01 T00860022  RH  064%=      5-min Rain = 0
KST4 041340Z 01012KT 09/02 A3019 RMK A01 T00880022  RH  064%=      5-min Rain = 0
KST4 041341Z 01011KT 09/02 A3019 RMK A01 T00880020  RH  062%=      5-min Rain = 0
KST4 041342Z 00011KT 09/02 A3019 RMK A01 T00880021  RH  063%=      5-min Rain = 0
KST4 041343Z 02010KT 09/02 A3019 RMK A01 T00890021  RH  063%=      5-min Rain = 0
KST4 041344Z 01009KT 09/02 A3019 RMK A01 T00900023  RH  063%=      5-min Rain = 0
KST4 041345Z 01012KT 09/02 A302 RMK A01 T00910023  RH  063%=      5-min Rain = 0
KST4 041346Z 01011KT 09/02 A302 RMK A01 T00900019  RH  061%=      5-min Rain = 0
KST4 041347Z 01010KT 09/02 A302 RMK A01 T00880018  RH  062%=      5-min Rain = 0
KST4 041348Z 01010KT 09/02 A302 RMK A01 T00870023  RH  064%=      5-min Rain = 0
KST4 041349Z 01012KT 09/02 A302 RMK A01 T00880019  RH  062%=      5-min Rain = 0
KST4 041350Z 02010KT 09/02 A302 RMK A01 T00880019  RH  062%=      5-min Rain = 0
KST4 041351Z 01008KT 09/02 A302 RMK A01 T00880021  RH  063%=      5-min Rain = 0
KST4 041352Z 01012KT 09/02 A302 RMK A01 T00880022  RH  063%=      5-min Rain = 0
KST4 041353Z 01011KT 09/02 A302 RMK A01 T00880019  RH  062%=      5-min Rain = 0
KST4 041354Z 01011KT 09/02 A302 RMK A01 T00870017  RH  061%=      5-min Rain = 0
KST4 041355Z 01010KT 09/02 A302 RMK A01 T00880019  RH  062%=      5-min Rain = 0
KST4 041356Z 01011KT 09/02 A302 RMK A01 T00910018  RH  060%=      5-min Rain = 0
KST4 041357Z 01011KT 09/02 A302 RMK A01 T00920020  RH  061%=      5-min Rain = 0
KST4 041358Z 01010KT 09/02 A302 RMK A01 T00930020  RH  060%=      5-min Rain = 0
KST4 041359Z 01012KT 09/02 A302 RMK A01 T00940022  RH  061%=      5-min Rain = 0
KST4 041400Z 01013KT 09/02 A302 RMK A01 T00940019  RH  060%=      5-min Rain = 0
KST4 041401Z 01010KT 09/01 A302 RMK A01 T00940014  RH  057%=      5-min Rain = 0
KST4 041402Z 01011KT 09/01 A302 RMK A01 T00930013  RH  057%=      5-min Rain = 0
KST4 041403Z 01013KT 09/01 A302 RMK A01 T00930014  RH  058%=      5-min Rain = 0
KST4 041404Z 01013KT 09/01 A302 RMK A01 T00930014  RH  058%=      5-min Rain = 0
KST4 041405Z 01013KT 09/01 A302 RMK A01 T00930014  RH  058%=      5-min Rain = 0
KST4 041406Z 01011KT 09/01 A302 RMK A01 T00920014  RH  058%=      5-min Rain = 0
KST4 041407Z 02011KT 09/02 A302 RMK A01 T00920020  RH  060%=      5-min Rain = 0
KST4 041408Z 01013KT 09/02 A302 RMK A01 T00930016  RH  058%=      5-min Rain = 0
KST4 041409Z 01010KT 09/01 A302 RMK A01 T00930012  RH  057%=      5-min Rain = 0
KST4 041410Z 01009KT 09/02 A3019 RMK A01 T00930020  RH  060%=      5-min Rain = 0
KST4 041411Z 02010KT 10/02 A3019 RMK A01 T00960023  RH  061%=      5-min Rain = 0
KST4 041412Z 02009KT 10/02 A3019 RMK A01 T00970023  RH  060%=      5-min Rain = 0
KST4 041413Z 01010KT 10/03 A3019 RMK A01 T00970025  RH  061%=      5-min Rain = 0
KST4 041414Z 01011KT 10/02 A3019 RMK A01 T00970019  RH  058%=      5-min Rain = 0
KST4 041415Z 01011KT 10/02 A3019 RMK A01 T00960016  RH  058%=      5-min Rain = 0
KST4 041416Z 01011KT 10/02 A3019 RMK A01 T00950017  RH  058%=      5-min Rain = 0
KST4 041417Z 01010KT 09/02 A3019 RMK A01 T00940018  RH  059%=      5-min Rain = 0
KST4 041418Z 02009KT 10/02 A3019 RMK A01 T00950020  RH  060%=      5-min Rain = 0
KST4 041419Z 03012KT 10/02 A3019 RMK A01 T00960018  RH  058%=      5-min Rain = 0
KST4 041420Z 03010KT 10/01 A3019 RMK A01 T00950010  RH  056%=      5-min Rain = 0
KST4 041421Z 03009KT 09/01 A3019 RMK A01 T00930009  RH  055%=      5-min Rain = 0
KST4 041422Z 03010KT 09/01 A3019 RMK A01 T00930013  RH  057%=      5-min Rain = 0
KST4 041423Z 02009KT 09/01 A3019 RMK A01 T00940013  RH  057%=      5-min Rain = 0
KST4 041424Z 03010KT 10/02 A3019 RMK A01 T00970021  RH  059%=      5-min Rain = 0
KST4 041425Z 03011KT 10/02 A3019 RMK A01 T00980015  RH  056%=      5-min Rain = 0
KST4 041426Z 03009KT 10/01 A3019 RMK A01 T00970014  RH  056%=      5-min Rain = 0
KST4 041427Z 02010KT 10/02 A3019 RMK A01 T00980015  RH  057%=      5-min Rain = 0
KST4 041428Z 02009KT 10/02 A3019 RMK A01 T00970016  RH  057%=      5-min Rain = 0
KST4 041429Z 02013KT 10/01 A3019 RMK A01 T00980014  RH  056%=      5-min Rain = 0
KST4 041430Z 03011KT 10/01 A3019 RMK A01 T00970011  RH  055%=      5-min Rain = 0
KST4 041431Z 03012KT 10/01 A302 RMK A01 T00980011  RH  055%=      5-min Rain = 0
KST4 041432Z 03011KT 10/01 A302 RMK A01 T00980007  RH  053%=      5-min Rain = 0
KST4 041433Z 03011KT 10/01 A302 RMK A01 T00970006  RH  053%=      5-min Rain = 0
KST4 041434Z 03011KT 10/01 A302 RMK A01 T00960005  RH  053%=      5-min Rain = 0
KST4 041435Z 03012KT 10/01 A302 RMK A01 T00950008  RH  055%=      5-min Rain = 0
KST4 041436Z 04012KT 10/00 A302 RMK A01 T00960004  RH  053%=      5-min Rain = 0
KST4 041437Z 05009KT 10/01 A302 RMK A01 T00960008  RH  054%=      5-min Rain = 0
KST4 041438Z 04011KT 10/01 A302 RMK A01 T00970008  RH  054%=      5-min Rain = 0
KST4 041439Z 05009KT 10/01 A302 RMK A01 T00970007  RH  053%=      5-min Rain = 0
KST4 041440Z 04009KT 10/01 A302 RMK A01 T00970010  RH  054%=      5-min Rain = 0
KST4 041441Z 03011KT 10/02 A302 RMK A01 T00990016  RH  056%=      5-min Rain = 0
KST4 041442Z 02012KT 10/02 A302 RMK A01 T01010016  RH  055%=      5-min Rain = 0
KST4 041443Z 02012KT 10/01 A302 RMK A01 T01000007  RH  052%=      5-min Rain = 0
KST4 041444Z 03010KT 10/01 A302 RMK A01 T00990012  RH  055%=      5-min Rain = 0
KST4 041445Z 03012KT 10/01 A302 RMK A01 T01000008  RH  053%=      5-min Rain = 0
KST4 041446Z 03012KT 10/01 A302 RMK A01 T00990008  RH  053%=      5-min Rain = 0
KST4 041447Z 04013KT 10/01 A302 RMK A01 T00990005  RH  052%=      5-min Rain = 0
KST4 041448Z 04010KT 10/01 A302 RMK A01 T00970005  RH  053%=      5-min Rain = 0
KST4 041449Z 04011KT 10/01 A302 RMK A01 T00970010  RH  054%=      5-min Rain = 0
KST4 041450Z 05011KT 10/01 A302 RMK A01 T00980010  RH  054%=      5-min Rain = 0
KST4 041451Z 04009KT 10/01 A302 RMK A01 T00980007  RH  053%=      5-min Rain = 0
KST4 041452Z 04009KT 10/01 A302 RMK A01 T00980010  RH  054%=      5-min Rain = 0
KST4 041453Z 04010KT 10/01 A302 RMK A01 T01000014  RH  055%=      5-min Rain = 0
KST4 041454Z 04011KT 10/01 A302 RMK A01 T01020011  RH  053%=      5-min Rain = 0
KST4 041455Z 04012KT 10/00 A302 RMK A01 T01000003  RH  051%=      5-min Rain = 0
KST4 041456Z 03012KT 10/00 A302 RMK A01 T00990001  RH  051%=      5-min Rain = 0
KST4 041457Z 03012KT 10/00 A302 RMK A01 T00990001  RH  050%=      5-min Rain = 0
KST4 041458Z 03010KT 10/00 A302 RMK A01 T00990003  RH  051%=      5-min Rain = 0
KST4 041459Z 03010KT 10/00 A302 RMK A01 T01000000  RH  050%=      5-min Rain = 0
KST4 041500Z 04011KT 10/M00 A302 RMK A01 T01001001  RH  049%=      5-min Rain = 0
KST4 041501Z 03009KT 10/M00 A302 RMK A01 T00991002  RH  050%=      5-min Rain = 0
KST4 041502Z 03010KT 10/01 A302 RMK A01 T01000008  RH  052%=      5-min Rain = 0
KST4 041503Z 05010KT 10/01 A302 RMK A01 T01040013  RH  053%=      5-min Rain = 0
KST4 041504Z 05011KT 11/01 A302 RMK A01 T01050008  RH  051%=      5-min Rain = 0
KST4 041505Z 06009KT 11/00 A302 RMK A01 T01050004  RH  050%=      5-min Rain = 0
KST4 041506Z 06008KT 10/00 A3019 RMK A01 T01030002  RH  049%=      5-min Rain = 0
KST4 041507Z 04012KT 10/01 A3019 RMK A01 T01030005  RH  051%=      5-min Rain = 0
KST4 041508Z 05011KT 10/00 A3019 RMK A01 T010300-0  RH  049%=      5-min Rain = 0
KST4 041509Z 05010KT 10/00 A3019 RMK A01 T01020001  RH  050%=      5-min Rain = 0
KST4 041510Z 04010KT 10/00 A3019 RMK A01 T01010001  RH  050%=      5-min Rain = 0
KST4 041511Z 06009KT 10/M00 A3019 RMK A01 T01001002  RH  049%=      5-min Rain = 0
KST4 041512Z 06009KT 10/00 A3019 RMK A01 T01000001  RH  050%=      5-min Rain = 0
KST4 041513Z 06009KT 10/00 A3019 RMK A01 T01000002  RH  051%=      5-min Rain = 0
KST4 041514Z 05008KT 10/00 A3019 RMK A01 T00990002  RH  051%=      5-min Rain = 0
KST4 041515Z 06009KT 10/01 A3019 RMK A01 T01010008  RH  052%=      5-min Rain = 0
KST4 041516Z 06009KT 11/01 A3019 RMK A01 T01050012  RH  052%=      5-min Rain = 0
KST4 041517Z 06010KT 11/01 A3019 RMK A01 T01050007  RH  050%=      5-min Rain = 0
KST4 041518Z 05010KT 11/01 A3019 RMK A01 T01050011  RH  052%=      5-min Rain = 0
KST4 041519Z 07010KT 11/01 A3019 RMK A01 T01070014  RH  052%=      5-min Rain = 0
KST4 041520Z 07009KT 11/01 A3019 RMK A01 T01070014  RH  052%=      5-min Rain = 0
KST4 041521Z 07010KT 11/01 A3019 RMK A01 T01080014  RH  052%=      5-min Rain = 0
KST4 041522Z 07008KT 11/01 A3019 RMK A01 T01070011  RH  051%=      5-min Rain = 0
KST4 041523Z 06009KT 11/01 A3019 RMK A01 T01060012  RH  052%=      5-min Rain = 0
KST4 041524Z 06009KT 11/02 A3019 RMK A01 T01070017  RH  054%=      5-min Rain = 0
KST4 041525Z 05009KT 11/01 A3019 RMK A01 T01080013  RH  052%=      5-min Rain = 0
KST4 041526Z 05010KT 11/01 A3019 RMK A01 T01070008  RH  050%=      5-min Rain = 0
KST4 041527Z 06011KT 11/01 A3019 RMK A01 T01060011  RH  052%=      5-min Rain = 0
KST4 041528Z 05009KT 11/01 A3019 RMK A01 T01070010  RH  051%=      5-min Rain = 0
KST4 041529Z 03007KT 11/00 A3019 RMK A01 T01070003  RH  049%=      5-min Rain = 0
KST4 041530Z 05008G15KT 11/01 A3019 RMK A01 T01050005  RH  050%=      5-min Rain = 0
KST4 041531Z 03010KT 11/01 A3019 RMK A01 T01070014  RH  052%=      5-min Rain = 0
KST4 041532Z 03008KT 11/01 A3019 RMK A01 T01090009  RH  050%=      5-min Rain = 0
KST4 041533Z 02008KT 11/01 A3019 RMK A01 T01070009  RH  051%=      5-min Rain = 0
KST4 041534Z 04009KT 11/01 A3019 RMK A01 T01080011  RH  051%=      5-min Rain = 0
KST4 041535Z 06009KT 11/01 A3019 RMK A01 T01080011  RH  051%=      5-min Rain = 0
KST4 041536Z 06012KT 11/02 A3019 RMK A01 T01090018  RH  053%=      5-min Rain = 0
KST4 041537Z 05010KT 11/01 A3019 RMK A01 T01100010  RH  050%=      5-min Rain = 0
KST4 041538Z 05008KT 11/01 A3019 RMK A01 T01070005  RH  049%=      5-min Rain = 0
KST4 041539Z 05010KT 11/01 A3019 RMK A01 T01060007  RH  050%=      5-min Rain = 0
KST4 041540Z 03008KT 11/01 A3019 RMK A01 T01070005  RH  049%=      5-min Rain = 0
KST4 041541Z 03007KT 11/01 A3019 RMK A01 T01070006  RH  050%=      5-min Rain = 0
KST4 041542Z 05006KT 11/01 A3019 RMK A01 T01070007  RH  050%=      5-min Rain = 0
KST4 041543Z 06009KT 11/01 A3019 RMK A01 T01090014  RH  052%=      5-min Rain = 0
KST4 041544Z 06008KT 11/02 A3019 RMK A01 T01100017  RH  053%=      5-min Rain = 0
KST4 041545Z 04007KT 11/01 A3019 RMK A01 T01130014  RH  050%=      5-min Rain = 0
KST4 041546Z 04006KT 11/01 A3019 RMK A01 T01140011  RH  049%=      5-min Rain = 0
KST4 041547Z 05009KT 11/01 A3019 RMK A01 T01120005  RH  048%=      5-min Rain = 0
KST4 041548Z 06010KT 11/01 A3019 RMK A01 T01120005  RH  048%=      5-min Rain = 0
KST4 041549Z 06010KT 11/M00 A3019 RMK A01 T01111001  RH  046%=      5-min Rain = 0
KST4 041550Z 05010KT 11/00 A3019 RMK A01 T01090004  RH  048%=      5-min Rain = 0
KST4 041551Z 05009KT 11/01 A3019 RMK A01 T01090005  RH  049%=      5-min Rain = 0
KST4 041552Z 05008KT 11/00 A3019 RMK A01 T01080003  RH  048%=      5-min Rain = 0
KST4 041553Z 07009KT 11/01 A3019 RMK A01 T01080011  RH  051%=      5-min Rain = 0
KST4 041554Z 08011KT 11/02 A3019 RMK A01 T01110019  RH  053%=      5-min Rain = 0
KST4 041555Z 07009KT 11/02 A302 RMK A01 T01140017  RH  051%=      5-min Rain = 0
KST4 041556Z 06005KT 11/00 A302 RMK A01 T01110000  RH  047%=      5-min Rain = 0
KST4 041557Z 05006KT 11/00 A302 RMK A01 T01080002  RH  048%=      5-min Rain = 0
KST4 041558Z 05007KT 11/01 A302 RMK A01 T01090006  RH  049%=      5-min Rain = 0
KST4 041559Z 06009KT 11/01 A302 RMK A01 T01100011  RH  050%=      5-min Rain = 0
KST4 041600Z 06006KT 11/01 A302 RMK A01 T01100005  RH  048%=      5-min Rain = 0
KST4 041601Z 06005KT 11/00 A302 RMK A01 T01090003  RH  048%=      5-min Rain = 0
KST4 041602Z 04005KT 11/00 A302 RMK A01 T01080001  RH  047%=      5-min Rain = 0
KST4 041603Z 07003KT 11/M00 A302 RMK A01 T01081003  RH  046%=      5-min Rain = 0
KST4 041604Z 04002KT 11/M00 A302 RMK A01 T01081004  RH  046%=      5-min Rain = 0
KST4 041605Z 05008KT 11/00 A302 RMK A01 T01100004  RH  048%=      5-min Rain = 0
KST4 041606Z 05010KT 11/00 A302 RMK A01 T01120003  RH  047%=      5-min Rain = 0
KST4 041607Z 05008KT 11/00 A302 RMK A01 T01110002  RH  047%=      5-min Rain = 0
KST4 041608Z 07005KT 11/01 A302 RMK A01 T01120005  RH  048%=      5-min Rain = 0
KST4 041609Z 08008KT 11/00 A302 RMK A01 T01130001  RH  046%=      5-min Rain = 0
KST4 041610Z 07010KT 11/01 A302 RMK A01 T01130005  RH  048%=      5-min Rain = 0
KST4 041611Z 07008KT 11/00 A302 RMK A01 T01130003  RH  046%=      5-min Rain = 0
KST4 041612Z 07008KT 11/00 A302 RMK A01 T01120002  RH  047%=      5-min Rain = 0
KST4 041613Z 06007KT 11/00 A302 RMK A01 T01110001  RH  046%=      5-min Rain = 0
KST4 041614Z 07006KT 11/00 A302 RMK A01 T01110004  RH  048%=      5-min Rain = 0
KST4 041615Z 08005KT 11/01 A302 RMK A01 T01120006  RH  048%=      5-min Rain = 0
KST4 041616Z 03006KT 11/01 A302 RMK A01 T01130007  RH  048%=      5-min Rain = 0
KST4 041617Z 02005KT 11/00 A302 RMK A01 T01130001  RH  046%=      5-min Rain = 0
KST4 041618Z 01004KT 11/01 A302 RMK A01 T01130006  RH  048%=      5-min Rain = 0
KST4 041619Z 04007KT 11/01 A302 RMK A01 T01140005  RH  047%=      5-min Rain = 0
KST4 041620Z 05003G8KT 11/M00 A302 RMK A01 T01141001  RH  045%=      5-min Rain = 0
KST4 041621Z 06001KT 11/00 A302 RMK A01 T01120002  RH  047%=      5-min Rain = 0
KST4 041622Z 06002KT 11/00 A302 RMK A01 T01130002  RH  046%=      5-min Rain = 0
KST4 041623Z 08006KT 12/01 A302 RMK A01 T01160007  RH  047%=      5-min Rain = 0
KST4 041624Z 09007KT 12/01 A302 RMK A01 T01170008  RH  047%=      5-min Rain = 0
KST4 041625Z 06008KT 12/02 A302 RMK A01 T01190020  RH  051%=      5-min Rain = 0
KST4 041626Z 07009KT 12/02 A302 RMK A01 T01220017  RH  049%=      5-min Rain = 0
KST4 041627Z 07007KT 12/01 A302 RMK A01 T01220009  RH  046%=      5-min Rain = 0
KST4 041628Z 07006KT 12/00 A302 RMK A01 T01180003  RH  045%=      5-min Rain = 0
KST4 041629Z 04006KT 12/00 A302 RMK A01 T01160004  RH  046%=      5-min Rain = 0
KST4 041630Z 05004KT 12/00 A302 RMK A01 T01150003  RH  046%=      5-min Rain = 0
KST4 041631Z 02006KT 12/01 A302 RMK A01 T01160005  RH  046%=      5-min Rain = 0
KST4 041632Z 02006KT 12/00 A302 RMK A01 T01160001  RH  045%=      5-min Rain = 0
KST4 041633Z 35007KT 12/01 A302 RMK A01 T01160006  RH  047%=      5-min Rain = 0
KST4 041634Z 35006KT 12/01 A302 RMK A01 T01200005  RH  045%=      5-min Rain = 0
KST4 041635Z 35005KT 12/00 A302 RMK A01 T01190003  RH  045%=      5-min Rain = 0
KST4 041636Z 32005KT 12/00 A302 RMK A01 T011900-0  RH  044%=      5-min Rain = 0
KST4 041637Z 32004KT 12/00 A302 RMK A01 T01190001  RH  044%=      5-min Rain = 0
KST4 041638Z 01007KT 12/01 A302 RMK A01 T01200007  RH  046%=      5-min Rain = 0
KST4 041639Z 01008KT 12/00 A302 RMK A01 T01210004  RH  045%=      5-min Rain = 0
KST4 041640Z 02008KT 12/01 A302 RMK A01 T01230008  RH  045%=      5-min Rain = 0
KST4 041641Z 02006KT 12/01 A302 RMK A01 T01230007  RH  045%=      5-min Rain = 0
KST4 041642Z 03008KT 12/01 A302 RMK A01 T01230008  RH  045%=      5-min Rain = 0
KST4 041643Z 04009KT 13/01 A302 RMK A01 T01250014  RH  047%=      5-min Rain = 0
KST4 041644Z 05008KT 13/01 A302 RMK A01 T01260008  RH  044%=      5-min Rain = 0
KST4 041645Z 01005KT 12/01 A302 RMK A01 T01240006  RH  044%=      5-min Rain = 0
KST4 041646Z 03006KT 12/01 A302 RMK A01 T01230007  RH  045%=      5-min Rain = 0
KST4 041647Z 04006KT 12/01 A302 RMK A01 T01230005  RH  044%=      5-min Rain = 0
KST4 041648Z 05004KT 12/01 A302 RMK A01 T01220005  RH  045%=      5-min Rain = 0
KST4 041649Z 04003KT 12/00 A302 RMK A01 T01200001  RH  044%=      5-min Rain = 0
KST4 041650Z 03004KT 12/00 A302 RMK A01 T01190003  RH  045%=      5-min Rain = 0
KST4 041651Z 01004G9KT 12/01 A302 RMK A01 T01200006  RH  046%=      5-min Rain = 0
KST4 041652Z 01009KT 12/02 A302 RMK A01 T01230015  RH  048%=      5-min Rain = 0
KST4 041653Z 01010KT 13/01 A302 RMK A01 T01250014  RH  047%=      5-min Rain = 0
KST4 041654Z 01008KT 13/01 A302 RMK A01 T01270010  RH  045%=      5-min Rain = 0
KST4 041655Z 00007KT 13/01 A302 RMK A01 T01270007  RH  044%=      5-min Rain = 0
KST4 041656Z 01008KT 13/01 A302 RMK A01 T01270005  RH  043%=      5-min Rain = 0
KST4 041657Z 03005KT 13/00 A302 RMK A01 T01250001  RH  042%=      5-min Rain = 0
KST4 041658Z 02004KT 12/00 A302 RMK A01 T01230002  RH  043%=      5-min Rain = 0
KST4 041659Z 03006KT 12/00 A302 RMK A01 T01230004  RH  044%=      5-min Rain = 0
KST4 041700Z 03007KT 12/01 A302 RMK A01 T01230006  RH  045%=      5-min Rain = 0
KST4 041701Z 05008KT 12/01 A302 RMK A01 T01240010  RH  046%=      5-min Rain = 0
KST4 041702Z 06008KT 13/02 A302 RMK A01 T01260016  RH  047%=      5-min Rain = 0
KST4 041703Z 08006KT 13/01 A302 RMK A01 T01270012  RH  045%=      5-min Rain = 0
KST4 041704Z 08005KT 13/01 A302 RMK A01 T01260009  RH  045%=      5-min Rain = 0
KST4 041705Z 07006KT 13/01 A302 RMK A01 T01260010  RH  045%=      5-min Rain = 0
KST4 041706Z 04006KT 13/02 A302 RMK A01 T01270015  RH  047%=      5-min Rain = 0
KST4 041707Z 02005KT 13/01 A302 RMK A01 T01290013  RH  045%=      5-min Rain = 0
KST4 041708Z 02002KT 13/00 A302 RMK A01 T01270003  RH  043%=      5-min Rain = 0
KST4 041709Z 35005KT 13/01 A3019 RMK A01 T01260013  RH  046%=      5-min Rain = 0
KST4 041710Z 35007KT 13/01 A3019 RMK A01 T01290010  RH  044%=      5-min Rain = 0
KST4 041711Z 02008G13KT 13/01 A3019 RMK A01 T01270010  RH  045%=      5-min Rain = 0
KST4 041712Z 01011KT 13/02 A3019 RMK A01 T01290019  RH  047%=      5-min Rain = 0
KST4 041713Z 02008KT 13/01 A3019 RMK A01 T01320013  RH  044%=      5-min Rain = 0
KST4 041714Z 03006KT 13/00 A3019 RMK A01 T01260003  RH  043%=      5-min Rain = 0
KST4 041715Z 04006KT 12/01 A3019 RMK A01 T01240008  RH  045%=      5-min Rain = 0
KST4 041716Z 02009KT 13/02 A3019 RMK A01 T01260017  RH  048%=      5-min Rain = 0
KST4 041717Z 01005KT 13/01 A3019 RMK A01 T01270005  RH  043%=      5-min Rain = 0
KST4 041718Z 00005KT 13/00 A3019 RMK A01 T01260003  RH  043%=      5-min Rain = 0
KST4 041719Z 01008KT 13/01 A3019 RMK A01 T01270010  RH  045%=      5-min Rain = 0
KST4 041720Z 03010KT 13/01 A3019 RMK A01 T01300011  RH  044%=      5-min Rain = 0
KST4 041721Z 05007KT 13/00 A3019 RMK A01 T01280004  RH  043%=      5-min Rain = 0
KST4 041722Z 05006KT 13/00 A3019 RMK A01 T01270004  RH  043%=      5-min Rain = 0
KST4 041723Z 08004KT 13/00 A3019 RMK A01 T01260004  RH  043%=      5-min Rain = 0
KST4 041724Z 11004KT 13/00 A3018 RMK A01 T01260002  RH  043%=      5-min Rain = 0
KST4 041725Z 10003KT 12/00 A3018 RMK A01 T01240002  RH  043%=      5-min Rain = 0
KST4 041726Z 02006KT 13/01 A3018 RMK A01 T01270011  RH  045%=      5-min Rain = 0
KST4 041727Z 05006KT 13/01 A3018 RMK A01 T01280006  RH  043%=      5-min Rain = 0
KST4 041728Z 02009KT 13/01 A3018 RMK A01 T01280005  RH  043%=      5-min Rain = 0
KST4 041729Z 02010KT 13/01 A3018 RMK A01 T01270005  RH  043%=      5-min Rain = 0
KST4 041730Z 01009KT 13/01 A3018 RMK A01 T01260006  RH  044%=      5-min Rain = 0
KST4 041731Z 01009KT 13/01 A3018 RMK A01 T01270005  RH  043%=      5-min Rain = 0
KST4 041732Z 02009KT 13/01 A3018 RMK A01 T01270007  RH  044%=      5-min Rain = 0
KST4 041733Z 01007KT 13/00 A3018 RMK A01 T01270003  RH  043%=      5-min Rain = 0
KST4 041734Z 02007KT 13/01 A3018 RMK A01 T01260007  RH  044%=      5-min Rain = 0
KST4 041735Z 03007KT 13/00 A3018 RMK A01 T01260004  RH  043%=      5-min Rain = 0
KST4 041736Z 03004KT 12/00 A3018 RMK A01 T01240000  RH  043%=      5-min Rain = 0
KST4 041737Z 01006KT 12/00 A3018 RMK A01 T01220002  RH  044%=      5-min Rain = 0
KST4 041738Z 01005KT 12/01 A3018 RMK A01 T01240007  RH  044%=      5-min Rain = 0
KST4 041739Z 02001KT 13/00 A3018 RMK A01 T01260003  RH  043%=      5-min Rain = 0
KST4 041740Z 31002KT 13/01 A3018 RMK A01 T01260005  RH  044%=      5-min Rain = 0
KST4 041741Z 03005G11KT 13/02 A3018 RMK A01 T01290016  RH  046%=      5-min Rain = 0
KST4 041742Z 04009KT 13/02 A3018 RMK A01 T01340017  RH  045%=      5-min Rain = 0
KST4 041743Z 05007KT 13/01 A3018 RMK A01 T01340011  RH  043%=      5-min Rain = 0
KST4 041744Z 04005KT 13/00 A3018 RMK A01 T01310004  RH  042%=      5-min Rain = 0
KST4 041745Z 03005KT 13/00 A3018 RMK A01 T012700-0  RH  041%=      5-min Rain = 0
KST4 041746Z 02004KT 13/00 A3018 RMK A01 T01260003  RH  043%=      5-min Rain = 0
KST4 041747Z 02005KT 13/01 A3018 RMK A01 T01260005  RH  043%=      5-min Rain = 0
KST4 041748Z 02009KT 13/01 A3018 RMK A01 T01310011  RH  044%=      5-min Rain = 0
KST4 041749Z 01006KT 13/01 A3018 RMK A01 T01320005  RH  042%=      5-min Rain = 0
KST4 041750Z 35007KT 13/01 A3018 RMK A01 T01330009  RH  043%=      5-min Rain = 0
KST4 041751Z 01007KT 14/01 A3018 RMK A01 T01350011  RH  043%=      5-min Rain = 0
KST4 041752Z 01005KT 14/01 A3018 RMK A01 T01350007  RH  042%=      5-min Rain = 0
KST4 041753Z 00008KT 14/02 A3018 RMK A01 T01370016  RH  044%=      5-min Rain = 0
KST4 041754Z 35007KT 14/01 A3018 RMK A01 T01380012  RH  042%=      5-min Rain = 0
KST4 041755Z 33009KT 14/01 A3017 RMK A01 T01360005  RH  041%=      5-min Rain = 0
KST4 041756Z 01006KT 13/01 A3017 RMK A01 T01330007  RH  042%=      5-min Rain = 0
KST4 041757Z 01010KT 14/01 A3017 RMK A01 T01350011  RH  043%=      5-min Rain = 0
KST4 041758Z 00012KT 14/01 A3018 RMK A01 T01380009  RH  041%=      5-min Rain = 0
KST4 041759Z 35009KT 14/01 A3018 RMK A01 T01370006  RH  041%=      5-min Rain = 0
KST4 041800Z 35006KT 13/00 A3018 RMK A01 T01340002  RH  040%=      5-min Rain = 0
KST4 041801Z 32005KT 13/00 A3017 RMK A01 T01320001  RH  041%=      5-min Rain = 0
KST4 041802Z 28003KT 13/00 A3017 RMK A01 T01320004  RH  042%=      5-min Rain = 0
KST4 041803Z 04002KT 13/01 A3017 RMK A01 T01320005  RH  042%=      5-min Rain = 0
KST4 041804Z 04005KT 13/01 A3017 RMK A01 T01330007  RH  042%=      5-min Rain = 0
KST4 041805Z 03006KT 13/01 A3017 RMK A01 T01330007  RH  042%=      5-min Rain = 0
KST4 041806Z 05007KT 13/01 A3017 RMK A01 T01330009  RH  043%=      5-min Rain = 0
KST4 041807Z 06005KT 13/01 A3017 RMK A01 T01320006  RH  042%=      5-min Rain = 0
KST4 041808Z 08005KT 13/01 A3017 RMK A01 T01330012  RH  044%=      5-min Rain = 0
KST4 041809Z 08004KT 13/01 A3017 RMK A01 T01340007  RH  042%=      5-min Rain = 0
KST4 041810Z 06006KT 14/01 A3017 RMK A01 T01350011  RH  043%=      5-min Rain = 0
KST4 041811Z 08005KT 14/01 A3017 RMK A01 T01350010  RH  042%=      5-min Rain = 0
KST4 041812Z 05005KT 14/01 A3017 RMK A01 T01360011  RH  043%=      5-min Rain = 0
KST4 041813Z 05004KT 14/01 A3017 RMK A01 T01360007  RH  041%=      5-min Rain = 0
KST4 041814Z 02006KT 14/02 A3017 RMK A01 T01370016  RH  044%=      5-min Rain = 0
KST4 041815Z 36003KT 14/01 A3017 RMK A01 T01410013  RH  042%=      5-min Rain = 0
KST4 041816Z 04005KT 14/01 A3017 RMK A01 T01410010  RH  041%=      5-min Rain = 0
KST4 041817Z 01009KT 14/01 A3017 RMK A01 T01410012  RH  041%=      5-min Rain = 0
KST4 041818Z 03006KT 14/01 A3017 RMK A01 T01400009  RH  041%=      5-min Rain = 0
KST4 041819Z 05008KT 14/02 A3017 RMK A01 T01430016  RH  042%=      5-min Rain = 0
KST4 041820Z 05008KT 14/01 A3017 RMK A01 T01430010  RH  040%=      5-min Rain = 0
KST4 041821Z 03010KT 14/01 A3017 RMK A01 T01410008  RH  040%=      5-min Rain = 0
KST4 041822Z 34008KT 14/00 A3017 RMK A01 T01410003  RH  039%=      5-min Rain = 0
KST4 041823Z 01003KT 14/M00 A3017 RMK A01 T01361003  RH  038%=      5-min Rain = 0
KST4 041824Z 05008KT 14/01 A3017 RMK A01 T01370010  RH  042%=      5-min Rain = 0
KST4 041825Z 04007KT 14/01 A3017 RMK A01 T01380005  RH  040%=      5-min Rain = 0
KST4 041826Z 03006KT 14/01 A3017 RMK A01 T01380011  RH  042%=      5-min Rain = 0
KST4 041827Z 03009KT 14/01 A3017 RMK A01 T01400007  RH  040%=      5-min Rain = 0
KST4 041828Z 02007KT 14/01 A3017 RMK A01 T01360005  RH  041%=      5-min Rain = 0
KST4 041829Z 01012KT 14/01 A3017 RMK A01 T01370011  RH  042%=      5-min Rain = 0
KST4 041830Z 01010KT 14/01 A3017 RMK A01 T01410010  RH  041%=      5-min Rain = 0
KST4 041831Z 02007KT 14/00 A3017 RMK A01 T01410004  RH  039%=      5-min Rain = 0
KST4 041832Z 02010KT 14/01 A3017 RMK A01 T01380006  RH  040%=      5-min Rain = 0
KST4 041833Z 02007KT 14/01 A3017 RMK A01 T01380008  RH  041%=      5-min Rain = 0
KST4 041834Z 02008KT 14/01 A3016 RMK A01 T01390008  RH  041%=      5-min Rain = 0
KST4 041835Z 03009KT 14/01 A3016 RMK A01 T01390007  RH  040%=      5-min Rain = 0
KST4 041836Z 01009KT 14/01 A3016 RMK A01 T01380005  RH  040%=      5-min Rain = 0
KST4 041837Z 00009KT 14/01 A3016 RMK A01 T01380008  RH  041%=      5-min Rain = 0
KST4 041838Z 35008KT 14/01 A3016 RMK A01 T01420012  RH  041%=      5-min Rain = 0
KST4 041839Z 05006KT 15/01 A3016 RMK A01 T01450009  RH  040%=      5-min Rain = 0
KST4 041840Z 06005KT 14/00 A3016 RMK A01 T014100-0  RH  038%=      5-min Rain = 0
KST4 041841Z 06004KT 14/01 A3016 RMK A01 T01390006  RH  040%=      5-min Rain = 0
KST4 041842Z 09004KT 14/00 A3016 RMK A01 T01400002  RH  039%=      5-min Rain = 0
KST4 041843Z 12004KT 14/00 A3016 RMK A01 T01380004  RH  040%=      5-min Rain = 0
KST4 041844Z 03004KT 14/01 A3016 RMK A01 T01390008  RH  041%=      5-min Rain = 0
KST4 041845Z 01009KT 14/01 A3016 RMK A01 T01430011  RH  041%=      5-min Rain = 0
KST4 041846Z 01007KT 14/01 A3016 RMK A01 T01440007  RH  039%=      5-min Rain = 0
KST4 041847Z 34002KT 15/01 A3016 RMK A01 T01450007  RH  039%=      5-min Rain = 0
KST4 041848Z 22001KT 15/02 A3016 RMK A01 T01460015  RH  041%=      5-min Rain = 0
KST4 041849Z 11000KT 15/02 A3015 RMK A01 T01500016  RH  040%=      5-min Rain = 0
KST4 041850Z 24001KT 15/01 A3015 RMK A01 T01530014  RH  039%=      5-min Rain = 0
KST4 041851Z 24004KT 15/01 A3015 RMK A01 T01540007  RH  037%=      5-min Rain = 0
KST4 041852Z 28005KT 15/00 A3015 RMK A01 T01490004  RH  037%=      5-min Rain = 0
KST4 041853Z 27005KT 15/00 A3015 RMK A01 T01470003  RH  037%=      5-min Rain = 0
KST4 041854Z 26004KT 15/00 A3015 RMK A01 T01450003  RH  038%=      5-min Rain = 0
KST4 041855Z 24003KT 14/00 A3015 RMK A01 T01430001  RH  038%=      5-min Rain = 0
KST4 041856Z 23002KT 14/M00 A3015 RMK A01 T01411003  RH  037%=      5-min Rain = 0
KST4 041857Z 23002KT 14/00 A3015 RMK A01 T014000-0  RH  038%=      5-min Rain = 0
KST4 041858Z 17001KT 14/01 A3015 RMK A01 T01400005  RH  040%=      5-min Rain = 0
KST4 041859Z 06001KT 14/01 A3015 RMK A01 T01430009  RH  040%=      5-min Rain = 0
KST4 041900Z 05002KT 15/01 A3015 RMK A01 T01450008  RH  039%=      5-min Rain = 0
KST4 041901Z 02004KT 15/01 A3015 RMK A01 T01460005  RH  038%=      5-min Rain = 0
KST4 041902Z 07005KT 15/01 A3015 RMK A01 T01460011  RH  040%=      5-min Rain = 0
KST4 041903Z 06005KT 15/02 A3015 RMK A01 T01500018  RH  041%=      5-min Rain = 0
KST4 041904Z 02008KT 15/01 A3015 RMK A01 T01520010  RH  038%=      5-min Rain = 0
KST4 041905Z 02005KT 15/01 A3015 RMK A01 T01510010  RH  038%=      5-min Rain = 0
KST4 041906Z 05008KT 15/01 A3015 RMK A01 T01520014  RH  039%=      5-min Rain = 0
KST4 041907Z 06007KT 15/01 A3015 RMK A01 T01510005  RH  037%=      5-min Rain = 0
KST4 041908Z 02008KT 15/01 A3015 RMK A01 T01480005  RH  038%=      5-min Rain = 0
KST4 041909Z 02005KT 15/00 A3015 RMK A01 T01460002  RH  037%=      5-min Rain = 0
KST4 041910Z 03006KT 14/00 A3015 RMK A01 T01440001  RH  038%=      5-min Rain = 0
KST4 041911Z 04008KT 14/M00 A3015 RMK A01 T01421002  RH  037%=      5-min Rain = 0
KST4 041912Z 07005KT 14/M00 A3015 RMK A01 T01411002  RH  037%=      5-min Rain = 0
KST4 041913Z 07005KT 14/M00 A3015 RMK A01 T01401003  RH  037%=      5-min Rain = 0
KST4 041914Z 08005KT 14/M00 A3015 RMK A01 T01401002  RH  038%=      5-min Rain = 0
KST4 041915Z 09005KT 14/M00 A3015 RMK A01 T01401001  RH  038%=      5-min Rain = 0
KST4 041916Z 07005KT 14/00 A3015 RMK A01 T01410004  RH  039%=      5-min Rain = 0
KST4 041917Z 05003KT 14/00 A3015 RMK A01 T01430002  RH  038%=      5-min Rain = 0
KST4 041918Z 12001KT 14/00 A3015 RMK A01 T01430002  RH  038%=      5-min Rain = 0
KST4 041919Z 15001KT 14/00 A3015 RMK A01 T01440002  RH  038%=      5-min Rain = 0
KST4 041920Z 06002G7KT 15/00 A3015 RMK A01 T01450000  RH  037%=      5-min Rain = 0
KST4 041921Z 05007KT 15/01 A3015 RMK A01 T01470006  RH  038%=      5-min Rain = 0
KST4 041922Z 02005KT 15/00 A3015 RMK A01 T01470003  RH  037%=      5-min Rain = 0
KST4 041923Z 05005KT 14/M00 A3015 RMK A01 T01441001  RH  037%=      5-min Rain = 0
KST4 041924Z 05005KT 15/01 A3015 RMK A01 T01450005  RH  038%=      5-min Rain = 0
KST4 041925Z 05007KT 15/01 A3015 RMK A01 T01460009  RH  039%=      5-min Rain = 0
KST4 041926Z 04006KT 15/01 A3015 RMK A01 T01500010  RH  039%=      5-min Rain = 0
KST4 041927Z 04006KT 15/01 A3015 RMK A01 T01510007  RH  037%=      5-min Rain = 0
KST4 041928Z 03006KT 15/00 A3015 RMK A01 T01480002  RH  037%=      5-min Rain = 0
KST4 041929Z 02004KT 15/00 A3015 RMK A01 T01460004  RH  038%=      5-min Rain = 0
KST4 041930Z 08006KT 15/01 A3015 RMK A01 T01460005  RH  038%=      5-min Rain = 0
KST4 041931Z 07004KT 15/00 A3015 RMK A01 T01470003  RH  037%=      5-min Rain = 0
KST4 041932Z 06003KT 15/00 A3015 RMK A01 T01460000  RH  037%=      5-min Rain = 0
KST4 041933Z 06004KT 15/01 A3015 RMK A01 T01460006  RH  038%=      5-min Rain = 0
KST4 041934Z 07003KT 15/00 A3015 RMK A01 T01480002  RH  037%=      5-min Rain = 0
KST4 041935Z 10004KT 15/01 A3015 RMK A01 T01480005  RH  038%=      5-min Rain = 0
KST4 041936Z 11003KT 15/00 A3015 RMK A01 T014900-0  RH  036%=      5-min Rain = 0
KST4 041937Z 10002KT 15/M00 A3015 RMK A01 T01481002  RH  036%=      5-min Rain = 0
KST4 041938Z 08004KT 15/00 A3015 RMK A01 T01490004  RH  037%=      5-min Rain = 0
KST4 041939Z 06003KT 15/00 A3015 RMK A01 T01480000  RH  036%=      5-min Rain = 0
KST4 041940Z 06005KT 15/01 A3015 RMK A01 T01500007  RH  038%=      5-min Rain = 0
KST4 041941Z 08005KT 15/00 A3015 RMK A01 T01510004  RH  037%=      5-min Rain = 0
KST4 041942Z 12006KT 15/01 A3014 RMK A01 T01510011  RH  039%=      5-min Rain = 0
KST4 041943Z 12008KT 15/01 A3014 RMK A01 T01530006  RH  037%=      5-min Rain = 0
KST4 041944Z 10006KT 15/01 A3014 RMK A01 T01530005  RH  037%=      5-min Rain = 0
KST4 041945Z 07006KT 15/00 A3014 RMK A01 T01500003  RH  037%=      5-min Rain = 0
KST4 041946Z 08005KT 15/01 A3014 RMK A01 T01500006  RH  037%=      5-min Rain = 0
KST4 041947Z 02003KT 15/00 A3014 RMK A01 T015000-0  RH  036%=      5-min Rain = 0
KST4 041948Z 18002KT 15/00 A3014 RMK A01 T01490004  RH  037%=      5-min Rain = 0
KST4 041949Z 18003KT 15/00 A3014 RMK A01 T01490000  RH  036%=      5-min Rain = 0
KST4 041950Z 10005KT 15/01 A3014 RMK A01 T01500005  RH  037%=      5-min Rain = 0
KST4 041951Z 11005KT 15/01 A3014 RMK A01 T01510005  RH  037%=      5-min Rain = 0
KST4 041952Z 11002KT 15/00 A3014 RMK A01 T01510003  RH  036%=      5-min Rain = 0
KST4 041953Z 09003KT 15/01 A3014 RMK A01 T01520011  RH  038%=      5-min Rain = 0
KST4 041954Z 11003KT 15/01 A3014 RMK A01 T01530006  RH  037%=      5-min Rain = 0
KST4 041955Z 14002KT 15/00 A3014 RMK A01 T01540004  RH  036%=      5-min Rain = 0
KST4 041956Z 10000KT 15/01 A3014 RMK A01 T01530009  RH  038%=      5-min Rain = 0
KST4 041957Z 15001KT 16/01 A3014 RMK A01 T01560010  RH  037%=      5-min Rain = 0
KST4 041958Z 14002KT 16/01 A3014 RMK A01 T01580006  RH  036%=      5-min Rain = 0
KST4 041959Z 15004KT 16/01 A3014 RMK A01 T01590008  RH  036%=      5-min Rain = 0
KST4 042000Z 17004KT 16/01 A3014 RMK A01 T01610009  RH  036%=      5-min Rain = 0
KST4 042001Z 19003KT 16/01 A3014 RMK A01 T01610010  RH  036%=      5-min Rain = 0
KST4 042002Z 19004KT 16/00 A3014 RMK A01 T01600003  RH  035%=      5-min Rain = 0
KST4 042003Z 21005KT 16/01 A3014 RMK A01 T01580009  RH  036%=      5-min Rain = 0
KST4 042004Z 19004KT 16/01 A3014 RMK A01 T01570007  RH  036%=      5-min Rain = 0
KST4 042005Z 21005KT 15/01 A3014 RMK A01 T01540005  RH  036%=      5-min Rain = 0
KST4 042006Z 21005KT 15/01 A3014 RMK A01 T01520005  RH  037%=      5-min Rain = 0
KST4 042007Z 16004KT 15/01 A3014 RMK A01 T01520009  RH  038%=      5-min Rain = 0
KST4 042008Z 13006KT 16/01 A3014 RMK A01 T01560014  RH  038%=      5-min Rain = 0
KST4 042009Z 18004G9KT 16/00 A3013 RMK A01 T01560003  RH  035%=      5-min Rain = 0
KST4 042010Z 17008KT 16/01 A3013 RMK A01 T01550012  RH  038%=      5-min Rain = 0
KST4 042011Z 15005KT 16/01 A3013 RMK A01 T01590010  RH  036%=      5-min Rain = 0
KST4 042012Z 17004KT 16/01 A3013 RMK A01 T01580005  RH  035%=      5-min Rain = 0
KST4 042013Z 19006KT 16/01 A3013 RMK A01 T01560008  RH  037%=      5-min Rain = 0
KST4 042014Z 21007KT 16/01 A3013 RMK A01 T01570008  RH  036%=      5-min Rain = 0
KST4 042015Z 21005KT 16/01 A3013 RMK A01 T01580009  RH  036%=      5-min Rain = 0
KST4 042016Z 19004KT 16/01 A3013 RMK A01 T01590010  RH  036%=      5-min Rain = 0
KST4 042017Z 15005KT 16/01 A3013 RMK A01 T01610012  RH  037%=      5-min Rain = 0
KST4 042018Z 15006KT 16/01 A3013 RMK A01 T01610005  RH  035%=      5-min Rain = 0
KST4 042019Z 15003KT 16/00 A3013 RMK A01 T01570003  RH  035%=      5-min Rain = 0
KST4 042020Z 14002KT 16/01 A3013 RMK A01 T01550005  RH  036%=      5-min Rain = 0
KST4 042021Z 18002KT 16/01 A3013 RMK A01 T01550006  RH  036%=      5-min Rain = 0
KST4 042022Z 12003KT 16/01 A3013 RMK A01 T01560007  RH  036%=      5-min Rain = 0
KST4 042023Z 11004KT 16/01 A3013 RMK A01 T01580008  RH  036%=      5-min Rain = 0
KST4 042024Z 11004KT 16/00 A3013 RMK A01 T01570004  RH  035%=      5-min Rain = 0
KST4 042025Z 11003KT 16/00 A3013 RMK A01 T01550004  RH  036%=      5-min Rain = 0
KST4 042026Z 06004KT 15/01 A3013 RMK A01 T01540006  RH  036%=      5-min Rain = 0
KST4 042027Z 08003KT 15/00 A3013 RMK A01 T01540003  RH  036%=      5-min Rain = 0
KST4 042028Z 10002KT 15/01 A3013 RMK A01 T01530006  RH  037%=      5-min Rain = 0
KST4 042029Z 09002KT 16/01 A3013 RMK A01 T01550009  RH  037%=      5-min Rain = 0
KST4 042030Z 06001KT 16/01 A3013 RMK A01 T01570006  RH  036%=      5-min Rain = 0
KST4 042031Z 05003KT 16/01 A3013 RMK A01 T01580006  RH  036%=      5-min Rain = 0
KST4 042032Z 06005KT 16/02 A3012 RMK A01 T01610017  RH  038%=      5-min Rain = 0
KST4 042033Z 06005KT 16/01 A3012 RMK A01 T01620009  RH  035%=      5-min Rain = 0
KST4 042034Z 07004KT 16/01 A3012 RMK A01 T01600006  RH  035%=      5-min Rain = 0
KST4 042035Z 08006KT 16/01 A3012 RMK A01 T01590010  RH  036%=      5-min Rain = 0
KST4 042036Z 06005KT 16/01 A3012 RMK A01 T01590007  RH  036%=      5-min Rain = 0
KST4 042037Z 05003KT 16/01 A3012 RMK A01 T01590010  RH  036%=      5-min Rain = 0
KST4 042038Z 02001KT 16/01 A3012 RMK A01 T01590007  RH  035%=      5-min Rain = 0
KST4 042039Z 03001KT 16/01 A3012 RMK A01 T01600007  RH  035%=      5-min Rain = 0
KST4 042040Z 14003KT 16/01 A3012 RMK A01 T01610009  RH  036%=      5-min Rain = 0
KST4 042041Z 10005KT 16/01 A3011 RMK A01 T01620010  RH  036%=      5-min Rain = 0
KST4 042042Z 03004KT 17/01 A3011 RMK A01 T01650014  RH  036%=      5-min Rain = 0
KST4 042043Z 08000KT 17/01 A3011 RMK A01 T01650013  RH  036%=      5-min Rain = 0
KST4 042044Z 19002KT 17/01 A3011 RMK A01 T01660012  RH  035%=      5-min Rain = 0
KST4 042045Z 17003KT 17/01 A3011 RMK A01 T01670011  RH  035%=      5-min Rain = 0
KST4 042046Z 11002KT 17/01 A3011 RMK A01 T01660009  RH  034%=      5-min Rain = 0
KST4 042047Z 08002KT 17/01 A3011 RMK A01 T01660013  RH  036%=      5-min Rain = 0
KST4 042048Z 12003KT 17/02 A3011 RMK A01 T01670015  RH  036%=      5-min Rain = 0
KST4 042049Z 16005KT 17/01 A3011 RMK A01 T01680012  RH  035%=      5-min Rain = 0
KST4 042050Z 21004KT 17/01 A3011 RMK A01 T01680014  RH  035%=      5-min Rain = 0
KST4 042051Z 17007KT 17/02 A3011 RMK A01 T01680015  RH  036%=      5-min Rain = 0
KST4 042052Z 14007KT 17/02 A3011 RMK A01 T01700016  RH  035%=      5-min Rain = 0
KST4 042053Z 20003KT 17/01 A3011 RMK A01 T01700012  RH  035%=      5-min Rain = 0
KST4 042054Z 20005KT 17/02 A3011 RMK A01 T01690016  RH  036%=      5-min Rain = 0
KST4 042055Z 11005KT 17/01 A3011 RMK A01 T01700012  RH  035%=      5-min Rain = 0
KST4 042056Z 11003KT 17/01 A3011 RMK A01 T01660009  RH  034%=      5-min Rain = 0
KST4 042057Z 14007KT 16/01 A3011 RMK A01 T01630008  RH  035%=      5-min Rain = 0
KST4 042058Z 12005KT 16/02 A3011 RMK A01 T01640015  RH  036%=      5-min Rain = 0
KST4 042059Z 17006KT 17/02 A3011 RMK A01 T01690021  RH  037%=      5-min Rain = 0
KST4 042100Z 20008KT 17/02 A3011 RMK A01 T01700015  RH  035%=      5-min Rain = 0
KST4 042101Z 17008KT 17/01 A3011 RMK A01 T01680014  RH  035%=      5-min Rain = 0
KST4 042102Z 17009KT 17/01 A3011 RMK A01 T01660013  RH  036%=      5-min Rain = 0
KST4 042103Z 18005KT 16/01 A3011 RMK A01 T01640009  RH  035%=      5-min Rain = 0
KST4 042104Z 17004KT 16/01 A3011 RMK A01 T01610011  RH  036%=      5-min Rain = 0
KST4 042105Z 19003KT 16/01 A3011 RMK A01 T01630011  RH  036%=      5-min Rain = 0
KST4 042106Z 18004KT 16/01 A301 RMK A01 T01630011  RH  036%=      5-min Rain = 0
KST4 042107Z 21001KT 16/01 A3011 RMK A01 T01620008  RH  035%=      5-min Rain = 0
KST4 042108Z 27002KT 16/01 A301 RMK A01 T01620012  RH  036%=      5-min Rain = 0
KST4 042109Z 30004KT 16/01 A301 RMK A01 T01620008  RH  035%=      5-min Rain = 0
KST4 042110Z 31004KT 16/00 A301 RMK A01 T01570004  RH  035%=      5-min Rain = 0
KST4 042111Z 32004KT 15/01 A301 RMK A01 T01540006  RH  037%=      5-min Rain = 0
KST4 042112Z 22003KT 15/01 A301 RMK A01 T01530011  RH  038%=      5-min Rain = 0
KST4 042113Z 18003KT 15/01 A301 RMK A01 T01540012  RH  038%=      5-min Rain = 0
KST4 042114Z 18003KT 15/01 A3011 RMK A01 T01530011  RH  038%=      5-min Rain = 0
KST4 042115Z 25002KT 15/01 A3011 RMK A01 T01530012  RH  038%=      5-min Rain = 0
KST4 042116Z 31002KT 15/01 A3011 RMK A01 T01530008  RH  037%=      5-min Rain = 0
KST4 042117Z 33002KT 16/02 A301 RMK A01 T01550018  RH  039%=      5-min Rain = 0
KST4 042118Z 07003KT 16/01 A301 RMK A01 T01590012  RH  037%=      5-min Rain = 0
KST4 042119Z 08002KT 16/01 A301 RMK A01 T01580007  RH  036%=      5-min Rain = 0
KST4 042120Z 12001KT 16/01 A301 RMK A01 T01560010  RH  037%=      5-min Rain = 0
KST4 042121Z 16002KT 16/01 A301 RMK A01 T01580013  RH  037%=      5-min Rain = 0
KST4 042122Z 18005KT 16/01 A301 RMK A01 T01610012  RH  037%=      5-min Rain = 0
KST4 042123Z 17005KT 16/02 A301 RMK A01 T01630017  RH  037%=      5-min Rain = 0
KST4 042124Z 18009KT 17/02 A301 RMK A01 T01650016  RH  037%=      5-min Rain = 0
KST4 042125Z 17009KT 17/02 A301 RMK A01 T01670017  RH  036%=      5-min Rain = 0
KST4 042126Z 14006KT 17/02 A301 RMK A01 T01660015  RH  036%=      5-min Rain = 0
KST4 042127Z 14006KT 17/02 A301 RMK A01 T01660016  RH  036%=      5-min Rain = 0
KST4 042128Z 14007KT 17/02 A301 RMK A01 T01670017  RH  036%=      5-min Rain = 0
KST4 042129Z 13006KT 17/01 A301 RMK A01 T01660013  RH  035%=      5-min Rain = 0
KST4 042130Z 07004KT 17/01 A301 RMK A01 T01650014  RH  036%=      5-min Rain = 0
KST4 042131Z 17004KT 17/02 A301 RMK A01 T01650017  RH  037%=      5-min Rain = 0
KST4 042132Z 17006KT 17/02 A301 RMK A01 T01680019  RH  037%=      5-min Rain = 0
KST4 042133Z 15008KT 17/02 A301 RMK A01 T01710019  RH  036%=      5-min Rain = 0
KST4 042134Z 14007KT 17/02 A301 RMK A01 T01720017  RH  035%=      5-min Rain = 0
KST4 042135Z 13005KT 17/01 A301 RMK A01 T01700013  RH  035%=      5-min Rain = 0
KST4 042136Z 11005KT 16/01 A301 RMK A01 T01640011  RH  036%=      5-min Rain = 0
KST4 042137Z 13004KT 16/01 A301 RMK A01 T01630013  RH  036%=      5-min Rain = 0
KST4 042138Z 15005KT 16/02 A301 RMK A01 T01620015  RH  037%=      5-min Rain = 0
KST4 042139Z 18004KT 16/02 A301 RMK A01 T01620015  RH  037%=      5-min Rain = 0
KST4 042140Z 22003KT 16/01 A301 RMK A01 T01620013  RH  037%=      5-min Rain = 0
KST4 042141Z 23001KT 16/01 A301 RMK A01 T01610012  RH  037%=      5-min Rain = 0
KST4 042142Z 18001KT 16/01 A3009 RMK A01 T01610010  RH  036%=      5-min Rain = 0
KST4 042143Z 13003KT 16/01 A3009 RMK A01 T01600010  RH  036%=      5-min Rain = 0
KST4 042144Z 14006KT 16/01 A3009 RMK A01 T01590012  RH  037%=      5-min Rain = 0
KST4 042145Z 20007KT 16/02 A3009 RMK A01 T01580016  RH  038%=      5-min Rain = 0
KST4 042146Z 21003KT 16/02 A301 RMK A01 T01590016  RH  038%=      5-min Rain = 0
KST4 042147Z 18001KT 16/02 A3009 RMK A01 T01590015  RH  038%=      5-min Rain = 0
KST4 042148Z 20003KT 16/01 A3009 RMK A01 T01590013  RH  037%=      5-min Rain = 0
KST4 042149Z 23001KT 16/01 A3009 RMK A01 T01580010  RH  037%=      5-min Rain = 0
KST4 042150Z 14004KT 16/02 A3009 RMK A01 T01570015  RH  038%=      5-min Rain = 0
KST4 042151Z 14006KT 16/02 A3009 RMK A01 T01580016  RH  038%=      5-min Rain = 0
KST4 042152Z 15006KT 16/01 A3009 RMK A01 T01590014  RH  038%=      5-min Rain = 0
KST4 042153Z 17005KT 16/02 A3009 RMK A01 T01580015  RH  038%=      5-min Rain = 0
KST4 042154Z 20007KT 16/02 A3009 RMK A01 T01580020  RH  039%=      5-min Rain = 0
KST4 042155Z 20008KT 16/02 A3009 RMK A01 T01610019  RH  038%=      5-min Rain = 0
KST4 042156Z 21007KT 16/02 A3009 RMK A01 T01610015  RH  037%=      5-min Rain = 0
KST4 042157Z 21005KT 16/01 A3009 RMK A01 T01610014  RH  037%=      5-min Rain = 0
KST4 042158Z 23005KT 16/02 A3009 RMK A01 T01620018  RH  038%=      5-min Rain = 0
KST4 042159Z 22004KT 16/02 A3009 RMK A01 T01640019  RH  038%=      5-min Rain = 0
KST4 042200Z 22004KT 16/02 A3009 RMK A01 T01640016  RH  037%=      5-min Rain = 0
KST4 042201Z 22003KT 16/02 A3008 RMK A01 T01640017  RH  037%=      5-min Rain = 0
KST4 042202Z 22002KT 16/02 A3008 RMK A01 T01640016  RH  037%=      5-min Rain = 0
KST4 042203Z 24002KT 16/02 A3008 RMK A01 T01640018  RH  037%=      5-min Rain = 0
KST4 042204Z 23002KT 17/02 A3008 RMK A01 T01670016  RH  036%=      5-min Rain = 0
KST4 042205Z 20003KT 17/02 A3008 RMK A01 T01680019  RH  037%=      5-min Rain = 0
KST4 042206Z 15003KT 17/02 A3008 RMK A01 T01730022  RH  036%=      5-min Rain = 0
KST4 042207Z 09005KT 17/02 A3008 RMK A01 T01730019  RH  035%=      5-min Rain = 0
KST4 042208Z 11004KT 17/01 A3008 RMK A01 T01710013  RH  034%=      5-min Rain = 0
KST4 042209Z 16005KT 17/02 A3008 RMK A01 T01680015  RH  036%=      5-min Rain = 0
KST4 042210Z 14005KT 17/02 A3008 RMK A01 T01660017  RH  037%=      5-min Rain = 0
KST4 042211Z 15005KT 17/02 A3008 RMK A01 T01680020  RH  037%=      5-min Rain = 0
KST4 042212Z 15007KT 17/02 A3008 RMK A01 T01710022  RH  037%=      5-min Rain = 0
KST4 042213Z 16005KT 17/02 A3008 RMK A01 T01730017  RH  035%=      5-min Rain = 0
KST4 042214Z 17006KT 17/02 A3007 RMK A01 T01710018  RH  036%=      5-min Rain = 0
KST4 042215Z 18009KT 17/02 A3007 RMK A01 T01730023  RH  037%=      5-min Rain = 0
KST4 042216Z 18007KT 17/02 A3007 RMK A01 T01740020  RH  036%=      5-min Rain = 0
KST4 042217Z 17006KT 17/02 A3007 RMK A01 T01720018  RH  035%=      5-min Rain = 0
KST4 042218Z 14005KT 17/02 A3007 RMK A01 T01700015  RH  035%=      5-min Rain = 0
KST4 042219Z 15008KT 17/02 A3007 RMK A01 T01670018  RH  037%=      5-min Rain = 0
KST4 042220Z 14008KT 17/02 A3007 RMK A01 T01670020  RH  037%=      5-min Rain = 0
KST4 042221Z 15007KT 17/02 A3007 RMK A01 T01680020  RH  037%=      5-min Rain = 0
KST4 042222Z 18006KT 17/02 A3007 RMK A01 T01680021  RH  037%=      5-min Rain = 0
KST4 042223Z 18005KT 17/02 A3007 RMK A01 T01680017  RH  036%=      5-min Rain = 0
KST4 042224Z 17004KT 17/02 A3007 RMK A01 T01660019  RH  037%=      5-min Rain = 0
KST4 042225Z 18004KT 17/02 A3007 RMK A01 T01650015  RH  036%=      5-min Rain = 0
KST4 042226Z 16007KT 17/02 A3007 RMK A01 T01660022  RH  038%=      5-min Rain = 0
KST4 042227Z 18006KT 17/02 A3007 RMK A01 T01680017  RH  036%=      5-min Rain = 0
KST4 042228Z 19007KT 17/02 A3007 RMK A01 T01680020  RH  037%=      5-min Rain = 0
KST4 042229Z 18005KT 17/02 A3007 RMK A01 T01680021  RH  037%=      5-min Rain = 0
KST4 042230Z 16009KT 17/03 A3007 RMK A01 T01720028  RH  038%=      5-min Rain = 0
KST4 042231Z 15005KT 17/02 A3007 RMK A01 T01740020  RH  036%=      5-min Rain = 0
KST4 042232Z 14003KT 17/02 A3007 RMK A01 T01720019  RH  036%=      5-min Rain = 0
KST4 042233Z 13001KT 17/02 A3007 RMK A01 T01710016  RH  035%=      5-min Rain = 0
KST4 042234Z 18004KT 17/02 A3007 RMK A01 T01710018  RH  036%=      5-min Rain = 0
KST4 042235Z 18007KT 17/03 A3007 RMK A01 T01740028  RH  038%=      5-min Rain = 0
KST4 042236Z 20007KT 18/03 A3007 RMK A01 T01780029  RH  037%=      5-min Rain = 0
KST4 042237Z 21005KT 18/03 A3007 RMK A01 T01770025  RH  036%=      5-min Rain = 0
KST4 042238Z 24004KT 18/02 A3007 RMK A01 T01750024  RH  036%=      5-min Rain = 0
KST4 042239Z 19006KT 18/03 A3007 RMK A01 T01750026  RH  037%=      5-min Rain = 0
KST4 042240Z 16010KT 18/03 A3007 RMK A01 T01790032  RH  038%=      5-min Rain = 0
KST4 042241Z 17008KT 18/02 A3007 RMK A01 T01780020  RH  035%=      5-min Rain = 0
KST4 042242Z 17007KT 17/02 A3007 RMK A01 T01740024  RH  037%=      5-min Rain = 0
KST4 042243Z 17007KT 17/02 A3007 RMK A01 T01700017  RH  036%=      5-min Rain = 0
KST4 042244Z 19009KT 17/02 A3007 RMK A01 T01650020  RH  037%=      5-min Rain = 0
KST4 042245Z 19009KT 17/03 A3007 RMK A01 T01690027  RH  039%=      5-min Rain = 0
KST4 042246Z 19009KT 17/02 A3007 RMK A01 T01710024  RH  037%=      5-min Rain = 0
KST4 042247Z 18009KT 17/02 A3007 RMK A01 T01710022  RH  037%=      5-min Rain = 0
KST4 042248Z 18011KT 17/02 A3007 RMK A01 T01700023  RH  037%=      5-min Rain = 0
KST4 042249Z 18009KT 17/02 A3007 RMK A01 T01670020  RH  037%=      5-min Rain = 0
KST4 042250Z 20009KT 17/02 A3007 RMK A01 T01660020  RH  038%=      5-min Rain = 0
KST4 042251Z 20009KT 17/02 A3007 RMK A01 T01660021  RH  038%=      5-min Rain = 0
KST4 042252Z 20008KT 17/02 A3007 RMK A01 T01680023  RH  038%=      5-min Rain = 0
KST4 042253Z 20006KT 17/02 A3007 RMK A01 T01700022  RH  037%=      5-min Rain = 0
KST4 042254Z 21005KT 17/02 A3007 RMK A01 T01700021  RH  037%=      5-min Rain = 0
KST4 042255Z 20003KT 17/02 A3007 RMK A01 T01710023  RH  037%=      5-min Rain = 0
KST4 042256Z 16004KT 17/02 A3007 RMK A01 T01720023  RH  037%=      5-min Rain = 0
KST4 042257Z 19007KT 17/03 A3007 RMK A01 T01740027  RH  037%=      5-min Rain = 0
KST4 042258Z 16007KT 18/02 A3007 RMK A01 T01750023  RH  036%=      5-min Rain = 0
KST4 042259Z 19009KT 17/02 A3007 RMK A01 T01730023  RH  036%=      5-min Rain = 0
KST4 042300Z 19007KT 17/02 A3007 RMK A01 T01720019  RH  036%=      5-min Rain = 0
KST4 042301Z 23004KT 17/02 A3007 RMK A01 T01690020  RH  037%=      5-min Rain = 0
KST4 042302Z 21004KT 17/02 A3007 RMK A01 T01690020  RH  037%=      5-min Rain = 0
KST4 042303Z 19003KT 17/02 A3007 RMK A01 T01700021  RH  037%=      5-min Rain = 0
KST4 042304Z 23002KT 17/02 A3007 RMK A01 T01710020  RH  036%=      5-min Rain = 0
KST4 042305Z 17004KT 17/02 A3007 RMK A01 T01710018  RH  036%=      5-min Rain = 0
KST4 042306Z 16006KT 17/02 A3007 RMK A01 T01720023  RH  037%=      5-min Rain = 0
KST4 042307Z 18006KT 17/02 A3007 RMK A01 T01710022  RH  037%=      5-min Rain = 0
KST4 042308Z 20005KT 17/02 A3007 RMK A01 T01710022  RH  037%=      5-min Rain = 0
KST4 042309Z 20004KT 17/02 A3007 RMK A01 T01700020  RH  037%=      5-min Rain = 0
KST4 042310Z 20009KT 17/02 A3007 RMK A01 T01700022  RH  037%=      5-min Rain = 0
KST4 042311Z 19007KT 17/02 A3007 RMK A01 T01690021  RH  037%=      5-min Rain = 0
KST4 042312Z 17006KT 17/02 A3007 RMK A01 T01680021  RH  037%=      5-min Rain = 0
KST4 042313Z 21003KT 17/02 A3007 RMK A01 T01680021  RH  037%=      5-min Rain = 0
KST4 042314Z 19006KT 17/03 A3007 RMK A01 T01690027  RH  038%=      5-min Rain = 0
KST4 042315Z 17007KT 17/03 A3007 RMK A01 T01730026  RH  037%=      5-min Rain = 0
KST4 042316Z 17008KT 17/03 A3007 RMK A01 T01730026  RH  037%=      5-min Rain = 0
KST4 042317Z 17006KT 17/02 A3007 RMK A01 T01730024  RH  037%=      5-min Rain = 0
KST4 042318Z 16006KT 17/02 A3007 RMK A01 T01720024  RH  037%=      5-min Rain = 0
KST4 042319Z 16008KT 17/02 A3007 RMK A01 T01720024  RH  037%=      5-min Rain = 0
KST4 042320Z 23009KT 17/03 A3007 RMK A01 T01710025  RH  037%=      5-min Rain = 0
KST4 042321Z 23006KT 17/02 A3007 RMK A01 T01700020  RH  036%=      5-min Rain = 0
KST4 042322Z 18004KT 17/02 A3007 RMK A01 T01680020  RH  037%=      5-min Rain = 0
KST4 042323Z 19004KT 17/02 A3007 RMK A01 T01690022  RH  037%=      5-min Rain = 0
KST4 042324Z 18006KT 17/02 A3007 RMK A01 T01700021  RH  037%=      5-min Rain = 0
KST4 042325Z 16007KT 17/02 A3007 RMK A01 T01700024  RH  037%=      5-min Rain = 0
KST4 042326Z 16009KT 17/03 A3007 RMK A01 T01710027  RH  038%=      5-min Rain = 0
KST4 042327Z 17009KT 17/03 A3007 RMK A01 T01720027  RH  038%=      5-min Rain = 0
KST4 042328Z 17009KT 17/03 A3007 RMK A01 T01730028  RH  038%=      5-min Rain = 0
KST4 042329Z 18008KT 17/03 A3007 RMK A01 T01720026  RH  038%=      5-min Rain = 0
KST4 042330Z 19005KT 17/02 A3007 RMK A01 T01710023  RH  037%=      5-min Rain = 0
KST4 042331Z 18006KT 17/03 A3007 RMK A01 T01710030  RH  039%=      5-min Rain = 0
KST4 042332Z 19007KT 17/03 A3007 RMK A01 T01730031  RH  038%=      5-min Rain = 0
KST4 042333Z 20006KT 17/03 A3007 RMK A01 T01740027  RH  037%=      5-min Rain = 0
KST4 042334Z 17005KT 17/03 A3007 RMK A01 T01740030  RH  038%=      5-min Rain = 0
KST4 042335Z 18004KT 18/03 A3007 RMK A01 T01750027  RH  037%=      5-min Rain = 0
KST4 042336Z 16007KT 17/02 A3007 RMK A01 T01730024  RH  037%=      5-min Rain = 0
KST4 042337Z 16008KT 17/03 A3007 RMK A01 T01710025  RH  038%=      5-min Rain = 0
KST4 042338Z 17004KT 17/03 A3007 RMK A01 T01710026  RH  038%=      5-min Rain = 0
KST4 042339Z 18006KT 17/03 A3007 RMK A01 T01710030  RH  039%=      5-min Rain = 0
KST4 042340Z 19007KT 17/03 A3007 RMK A01 T01730027  RH  038%=      5-min Rain = 0
KST4 042341Z 18007KT 17/03 A3007 RMK A01 T01720027  RH  038%=      5-min Rain = 0
KST4 042342Z 17009KT 17/03 A3007 RMK A01 T01710027  RH  038%=      5-min Rain = 0
KST4 042343Z 16006KT 17/03 A3007 RMK A01 T01700026  RH  038%=      5-min Rain = 0
KST4 042344Z 14005KT 17/03 A3007 RMK A01 T01690025  RH  038%=      5-min Rain = 0
KST4 042345Z 14005KT 17/02 A3007 RMK A01 T01690024  RH  038%=      5-min Rain = 0
KST4 042346Z 15005KT 17/03 A3007 RMK A01 T01690025  RH  038%=      5-min Rain = 0
KST4 042347Z 16005KT 17/02 A3007 RMK A01 T01680023  RH  038%=      5-min Rain = 0
KST4 042348Z 17005KT 17/02 A3007 RMK A01 T01670024  RH  038%=      5-min Rain = 0
KST4 042349Z 18010KT 17/03 A3007 RMK A01 T01670026  RH  039%=      5-min Rain = 0
KST4 042350Z 18011KT 17/03 A3007 RMK A01 T01670027  RH  039%=      5-min Rain = 0
KST4 042351Z 18011KT 17/03 A3007 RMK A01 T01680027  RH  039%=      5-min Rain = 0
KST4 042352Z 18009KT 17/03 A3007 RMK A01 T01680027  RH  039%=      5-min Rain = 0
KST4 042353Z 18007KT 17/03 A3007 RMK A01 T01670026  RH  039%=      5-min Rain = 0
KST4 042354Z 17009KT 17/03 A3007 RMK A01 T01670027  RH  039%=      5-min Rain = 0
KST4 042355Z 18006KT 17/02 A3007 RMK A01 T01660024  RH  038%=      5-min Rain = 0
KST4 042356Z 19005KT 17/03 A3007 RMK A01 T01660027  RH  039%=      5-min Rain = 0
KST4 042357Z 17006KT 17/03 A3007 RMK A01 T01670027  RH  039%=      5-min Rain = 0
KST4 042358Z 17006KT 17/02 A3007 RMK A01 T01670024  RH  038%=      5-min Rain = 0
KST4 042359Z 19008KT 17/03 A3007 RMK A01 T01660026  RH  039%=      5-min Rain = 0
KST4 050000Z 19009KT 17/03 A3006 RMK A01 T01660029  RH  040%=      5-min Rain = 0
KST4 050001Z 20008KT 17/03 A3006 RMK A01 T01670029  RH  039%=      5-min Rain = 0
KST4 050002Z 20007KT 17/03 A3006 RMK A01 T01680027  RH  039%=      5-min Rain = 0
KST4 050003Z 19005KT 17/03 A3006 RMK A01 T01670025  RH  039%=      5-min Rain = 0
KST4 050004Z 14005KT 17/03 A3006 RMK A01 T01670030  RH  040%=      5-min Rain = 0
KST4 050005Z 17006KT 17/03 A3006 RMK A01 T01680030  RH  040%=      5-min Rain = 0
KST4 050006Z 16010KT 17/03 A3006 RMK A01 T01690029  RH  039%=      5-min Rain = 0
KST4 050007Z 15012KT 17/03 A3006 RMK A01 T01680028  RH  039%=      5-min Rain = 0
KST4 050008Z 16010KT 17/03 A3006 RMK A01 T01670027  RH  039%=      5-min Rain = 0
KST4 050009Z 17009KT 17/03 A3006 RMK A01 T01660030  RH  040%=      5-min Rain = 0
KST4 050010Z 17008KT 17/03 A3006 RMK A01 T01660030  RH  040%=      5-min Rain = 0
KST4 050011Z 17007KT 17/03 A3006 RMK A01 T01660027  RH  039%=      5-min Rain = 0
KST4 050012Z 17005KT 17/03 A3006 RMK A01 T01650029  RH  040%=      5-min Rain = 0
KST4 050013Z 16006KT 17/03 A3006 RMK A01 T01660031  RH  040%=      5-min Rain = 0
KST4 050014Z 15008KT 17/03 A3007 RMK A01 T01670027  RH  039%=      5-min Rain = 0
KST4 050015Z 15009KT 17/03 A3007 RMK A01 T01660029  RH  040%=      5-min Rain = 0
KST4 050016Z 15008KT 17/03 A3007 RMK A01 T01660027  RH  039%=      5-min Rain = 0
KST4 050017Z 15009KT 17/03 A3006 RMK A01 T01660027  RH  039%=      5-min Rain = 0
KST4 050018Z 16008KT 17/03 A3006 RMK A01 T01660030  RH  040%=      5-min Rain = 0
KST4 050019Z 17010KT 17/03 A3006 RMK A01 T01660029  RH  040%=      5-min Rain = 0
KST4 050020Z 18010KT 17/03 A3007 RMK A01 T01660028  RH  040%=      5-min Rain = 0
KST4 050021Z 17009KT 16/03 A3007 RMK A01 T01640026  RH  039%=      5-min Rain = 0
KST4 050022Z 16008KT 16/03 A3007 RMK A01 T01640027  RH  040%=      5-min Rain = 0
KST4 050023Z 14010KT 16/03 A3007 RMK A01 T01640028  RH  040%=      5-min Rain = 0
KST4 050024Z 14011KT 16/03 A3007 RMK A01 T01640025  RH  039%=      5-min Rain = 0
KST4 050025Z 14011KT 16/03 A3006 RMK A01 T01630026  RH  040%=      5-min Rain = 0
KST4 050026Z 14010KT 16/03 A3007 RMK A01 T01630028  RH  040%=      5-min Rain = 0
KST4 050027Z 13009KT 16/03 A3006 RMK A01 T01630028  RH  040%=      5-min Rain = 0
KST4 050028Z 14010KT 16/03 A3006 RMK A01 T01630029  RH  041%=      5-min Rain = 0
KST4 050029Z 14008KT 16/03 A3007 RMK A01 T01630027  RH  040%=      5-min Rain = 0
KST4 050030Z 15007KT 16/03 A3007 RMK A01 T01620028  RH  040%=      5-min Rain = 0
KST4 050031Z 14009KT 16/03 A3007 RMK A01 T01630030  RH  041%=      5-min Rain = 0
KST4 050032Z 15009KT 16/03 A3007 RMK A01 T01630027  RH  040%=      5-min Rain = 0
KST4 050033Z 14008KT 16/03 A3006 RMK A01 T01630028  RH  040%=      5-min Rain = 0
KST4 050034Z 14010KT 16/03 A3006 RMK A01 T01620029  RH  041%=      5-min Rain = 0
KST4 050035Z 14010KT 16/03 A3006 RMK A01 T01620031  RH  041%=      5-min Rain = 0
KST4 050036Z 14009KT 16/03 A3006 RMK A01 T01620027  RH  040%=      5-min Rain = 0
KST4 050037Z 13008KT 16/03 A3006 RMK A01 T01620029  RH  041%=      5-min Rain = 0
KST4 050038Z 14009KT 16/03 A3006 RMK A01 T01610031  RH  041%=      5-min Rain = 0
KST4 050039Z 14010KT 16/03 A3006 RMK A01 T01610029  RH  041%=      5-min Rain = 0
KST4 050040Z 14009KT 16/03 A3006 RMK A01 T01610028  RH  041%=      5-min Rain = 0
KST4 050041Z 15010KT 16/03 A3006 RMK A01 T01610029  RH  041%=      5-min Rain = 0
KST4 050042Z 14009KT 16/03 A3006 RMK A01 T01610030  RH  042%=      5-min Rain = 0
KST4 050043Z 14012KT 16/03 A3006 RMK A01 T01610029  RH  041%=      5-min Rain = 0
KST4 050044Z 14011KT 16/03 A3006 RMK A01 T01600029  RH  041%=      5-min Rain = 0
KST4 050045Z 14010KT 16/03 A3006 RMK A01 T01600027  RH  041%=      5-min Rain = 0
KST4 050046Z 14010KT 16/03 A3006 RMK A01 T01590028  RH  042%=      5-min Rain = 0
KST4 050047Z 14010KT 16/03 A3006 RMK A01 T01590030  RH  042%=      5-min Rain = 0
KST4 050048Z 14011KT 16/03 A3006 RMK A01 T01590028  RH  042%=      5-min Rain = 0
KST4 050049Z 14010KT 16/03 A3006 RMK A01 T01580028  RH  042%=      5-min Rain = 0
KST4 050050Z 14008KT 16/03 A3006 RMK A01 T01580028  RH  042%=      5-min Rain = 0
KST4 050051Z 13008KT 16/03 A3006 RMK A01 T01580030  RH  042%=      5-min Rain = 0
KST4 050052Z 13009KT 16/03 A3006 RMK A01 T01580030  RH  042%=      5-min Rain = 0
KST4 050053Z 13009KT 16/03 A3006 RMK A01 T01570030  RH  042%=      5-min Rain = 0
KST4 050054Z 13011KT 16/03 A3006 RMK A01 T01570029  RH  042%=      5-min Rain = 0
KST4 050055Z 13010KT 16/03 A3006 RMK A01 T01560030  RH  043%=      5-min Rain = 0
KST4 050056Z 14009KT 16/03 A3006 RMK A01 T01560030  RH  043%=      5-min Rain = 0
KST4 050057Z 14009KT 16/03 A3006 RMK A01 T01560030  RH  043%=      5-min Rain = 0
KST4 050058Z 14008KT 16/03 A3006 RMK A01 T01550030  RH  043%=      5-min Rain = 0
KST4 050059Z 13009KT 16/03 A3006 RMK A01 T01550032  RH  044%=      5-min Rain = 0
KST4 050100Z 13008KT 16/03 A3006 RMK A01 T01550033  RH  044%=      5-min Rain = 0
KST4 050101Z 13009KT 15/03 A3006 RMK A01 T01540033  RH  044%=      5-min Rain = 0
KST4 050102Z 13010KT 15/03 A3006 RMK A01 T01530032  RH  044%=      5-min Rain = 0
KST4 050103Z 13009KT 15/03 A3006 RMK A01 T01530033  RH  044%=      5-min Rain = 0
KST4 050104Z 13008KT 15/03 A3006 RMK A01 T01520033  RH  045%=      5-min Rain = 0
KST4 050105Z 13008KT 15/03 A3007 RMK A01 T01520034  RH  045%=      5-min Rain = 0
KST4 050106Z 13008KT 15/04 A3007 RMK A01 T01510035  RH  046%=      5-min Rain = 0
KST4 050107Z 13007KT 15/04 A3007 RMK A01 T01500037  RH  047%=      5-min Rain = 0
KST4 050108Z 13008KT 15/04 A3007 RMK A01 T01490039  RH  048%=      5-min Rain = 0
KST4 050109Z 13008KT 15/04 A3007 RMK A01 T01480038  RH  047%=      5-min Rain = 0
KST4 050110Z 13009KT 15/04 A3007 RMK A01 T01480038  RH  048%=      5-min Rain = 0
KST4 050111Z 13009KT 15/04 A3007 RMK A01 T01480037  RH  048%=      5-min Rain = 0
KST4 050112Z 14008KT 15/04 A3007 RMK A01 T01480036  RH  047%=      5-min Rain = 0
KST4 050113Z 14009KT 15/04 A3007 RMK A01 T01480037  RH  047%=      5-min Rain = 0
KST4 050114Z 14009KT 15/04 A3007 RMK A01 T01470036  RH  047%=      5-min Rain = 0
KST4 050115Z 14009KT 15/04 A3007 RMK A01 T01470036  RH  047%=      5-min Rain = 0
KST4 050116Z 14008KT 15/04 A3007 RMK A01 T01470036  RH  047%=      5-min Rain = 0
KST4 050117Z 14008KT 15/04 A3007 RMK A01 T01460037  RH  048%=      5-min Rain = 0
KST4 050118Z 14008KT 15/04 A3007 RMK A01 T01450037  RH  048%=      5-min Rain = 0
KST4 050119Z 14008KT 14/04 A3007 RMK A01 T01440038  RH  049%=      5-min Rain = 0
KST4 050120Z 14008KT 14/04 A3007 RMK A01 T01430038  RH  049%=      5-min Rain = 0
KST4 050121Z 14008KT 14/04 A3007 RMK A01 T01420038  RH  049%=      5-min Rain = 0
KST4 050122Z 14008KT 14/04 A3007 RMK A01 T01420038  RH  049%=      5-min Rain = 0
KST4 050123Z 14008KT 14/04 A3007 RMK A01 T01410038  RH  050%=      5-min Rain = 0
KST4 050124Z 13008KT 14/04 A3007 RMK A01 T01400038  RH  050%=      5-min Rain = 0
KST4 050125Z 13008KT 14/04 A3007 RMK A01 T01390039  RH  051%=      5-min Rain = 0
KST4 050126Z 13011KT 14/04 A3007 RMK A01 T01380039  RH  051%=      5-min Rain = 0
KST4 050127Z 13011KT 14/04 A3007 RMK A01 T01370036  RH  050%=      5-min Rain = 0
KST4 050128Z 13010KT 14/04 A3007 RMK A01 T01370037  RH  051%=      5-min Rain = 0
KST4 050129Z 13010KT 14/04 A3007 RMK A01 T01360038  RH  051%=      5-min Rain = 0
KST4 050130Z 13010KT 14/04 A3007 RMK A01 T01350037  RH  052%=      5-min Rain = 0
KST4 050131Z 13009KT 13/04 A3007 RMK A01 T01340038  RH  052%=      5-min Rain = 0
KST4 050132Z 13010KT 13/04 A3007 RMK A01 T01330038  RH  053%=      5-min Rain = 0
KST4 050133Z 13009KT 13/04 A3007 RMK A01 T01310039  RH  053%=      5-min Rain = 0
KST4 050134Z 12009KT 13/04 A3007 RMK A01 T01300039  RH  054%=      5-min Rain = 0
KST4 050135Z 13009KT 13/04 A3007 RMK A01 T01300039  RH  054%=      5-min Rain = 0
KST4 050136Z 12009KT 13/04 A3007 RMK A01 T01290039  RH  054%=      5-min Rain = 0
KST4 050137Z 12008KT 13/04 A3007 RMK A01 T01290039  RH  054%=      5-min Rain = 0
KST4 050138Z 12008KT 13/04 A3007 RMK A01 T01290040  RH  055%=      5-min Rain = 0
KST4 050139Z 12008KT 13/04 A3007 RMK A01 T01270040  RH  055%=      5-min Rain = 0
KST4 050140Z 13008KT 13/04 A3007 RMK A01 T01260040  RH  056%=      5-min Rain = 0
KST4 050141Z 12008KT 12/04 A3007 RMK A01 T01240039  RH  056%=      5-min Rain = 0
KST4 050142Z 13008KT 12/04 A3008 RMK A01 T01240040  RH  056%=      5-min Rain = 0
KST4 050143Z 13008KT 12/04 A3008 RMK A01 T01230040  RH  057%=      5-min Rain = 0
KST4 050144Z 13008KT 12/04 A3008 RMK A01 T01220040  RH  057%=      5-min Rain = 0
KST4 050145Z 13009KT 12/04 A3008 RMK A01 T01210041  RH  058%=      5-min Rain = 0
KST4 050146Z 13009KT 12/04 A3008 RMK A01 T01200041  RH  058%=      5-min Rain = 0
KST4 050147Z 13009KT 12/04 A3008 RMK A01 T01200041  RH  058%=      5-min Rain = 0
KST4 050148Z 13009KT 12/04 A3008 RMK A01 T01200041  RH  058%=      5-min Rain = 0
KST4 050149Z 13010KT 12/04 A3008 RMK A01 T01190039  RH  058%=      5-min Rain = 0
KST4 050150Z 13010KT 12/04 A3008 RMK A01 T01200039  RH  057%=      5-min Rain = 0
KST4 050151Z 13010KT 12/04 A3008 RMK A01 T01210039  RH  057%=      5-min Rain = 0
KST4 050152Z 13010KT 12/04 A3008 RMK A01 T01210040  RH  058%=      5-min Rain = 0
KST4 050153Z 13010KT 12/04 A3008 RMK A01 T01200039  RH  058%=      5-min Rain = 0
KST4 050154Z 13010KT 12/04 A3008 RMK A01 T01190039  RH  058%=      5-min Rain = 0
KST4 050155Z 13009KT 12/04 A3008 RMK A01 T01190040  RH  058%=      5-min Rain = 0
KST4 050156Z 13009KT 12/04 A3008 RMK A01 T01180040  RH  059%=      5-min Rain = 0
KST4 050157Z 12009KT 12/04 A3008 RMK A01 T01170040  RH  059%=      5-min Rain = 0
KST4 050158Z 12009KT 12/04 A3008 RMK A01 T01160040  RH  060%=      5-min Rain = 0
KST4 050159Z 12009KT 12/04 A3008 RMK A01 T01160041  RH  060%=      5-min Rain = 0
KST4 050200Z 13008KT 12/04 A3008 RMK A01 T01150041  RH  060%=      5-min Rain = 0
KST4 050201Z 13008KT 12/04 A3008 RMK A01 T01150040  RH  060%=      5-min Rain = 0
KST4 050202Z 12009KT 11/04 A3008 RMK A01 T01140040  RH  060%=      5-min Rain = 0
KST4 050203Z 13008KT 11/04 A3008 RMK A01 T01140040  RH  060%=      5-min Rain = 0
KST4 050204Z 12009KT 11/04 A3008 RMK A01 T01140040  RH  060%=      5-min Rain = 0
KST4 050205Z 12009KT 11/04 A3008 RMK A01 T01140040  RH  060%=      5-min Rain = 0
KST4 050206Z 13009KT 11/04 A3008 RMK A01 T01140040  RH  061%=      5-min Rain = 0
KST4 050207Z 12009KT 11/04 A3008 RMK A01 T01130040  RH  061%=      5-min Rain = 0
KST4 050208Z 12009KT 11/04 A3008 RMK A01 T01130041  RH  061%=      5-min Rain = 0
KST4 050209Z 12009KT 11/04 A3008 RMK A01 T01110040  RH  062%=      5-min Rain = 0
KST4 050210Z 12009KT 11/04 A3008 RMK A01 T01110041  RH  062%=      5-min Rain = 0
KST4 050211Z 12008KT 11/04 A3008 RMK A01 T01100041  RH  062%=      5-min Rain = 0
KST4 050212Z 12009KT 11/04 A3008 RMK A01 T01100040  RH  062%=      5-min Rain = 0
KST4 050213Z 12008KT 11/04 A3008 RMK A01 T01100040  RH  062%=      5-min Rain = 0
KST4 050214Z 12008KT 11/04 A3008 RMK A01 T01100040  RH  062%=      5-min Rain = 0
KST4 050215Z 12008KT 11/04 A3008 RMK A01 T01100040  RH  062%=      5-min Rain = 0
KST4 050216Z 12009KT 11/04 A3008 RMK A01 T01090041  RH  063%=      5-min Rain = 0
KST4 050217Z 12009KT 11/04 A3008 RMK A01 T01080041  RH  063%=      5-min Rain = 0
KST4 050218Z 12009KT 11/04 A3008 RMK A01 T01070041  RH  064%=      5-min Rain = 0
KST4 050219Z 12009KT 11/04 A3009 RMK A01 T01070042  RH  064%=      5-min Rain = 0
KST4 050220Z 12009KT 11/04 A3009 RMK A01 T01060042  RH  064%=      5-min Rain = 0
KST4 050221Z 12009KT 11/04 A3009 RMK A01 T01060041  RH  064%=      5-min Rain = 0
KST4 050222Z 12009KT 11/04 A3009 RMK A01 T01060042  RH  064%=      5-min Rain = 0
KST4 050223Z 12009KT 11/04 A3009 RMK A01 T01060042  RH  065%=      5-min Rain = 0
KST4 050224Z 12009KT 11/04 A3009 RMK A01 T01050042  RH  065%=      5-min Rain = 0
KST4 050225Z 12009KT 11/04 A3009 RMK A01 T01050041  RH  065%=      5-min Rain = 0
KST4 050226Z 12009KT 11/04 A3009 RMK A01 T01050041  RH  065%=      5-min Rain = 0
KST4 050227Z 12008KT 11/04 A3009 RMK A01 T01050041  RH  065%=      5-min Rain = 0
KST4 050228Z 12009KT 11/04 A3009 RMK A01 T01050041  RH  065%=      5-min Rain = 0
KST4 050229Z 12009KT 11/04 A3009 RMK A01 T01050040  RH  064%=      5-min Rain = 0
KST4 050230Z 12009KT 11/04 A3009 RMK A01 T01050040  RH  064%=      5-min Rain = 0
KST4 050231Z 12009KT 11/04 A3009 RMK A01 T01050040  RH  064%=      5-min Rain = 0
KST4 050232Z 12009KT 11/04 A3009 RMK A01 T01050041  RH  064%=      5-min Rain = 0
KST4 050233Z 12009KT 10/04 A301 RMK A01 T01040040  RH  064%=      5-min Rain = 0
KST4 050234Z 12009KT 10/04 A301 RMK A01 T01040041  RH  065%=      5-min Rain = 0
KST4 050235Z 12009KT 10/04 A3009 RMK A01 T01040041  RH  065%=      5-min Rain = 0
KST4 050236Z 12009KT 10/04 A3009 RMK A01 T01030041  RH  065%=      5-min Rain = 0
KST4 050237Z 12009KT 10/04 A301 RMK A01 T01030041  RH  065%=      5-min Rain = 0
KST4 050238Z 13009KT 10/04 A301 RMK A01 T01030041  RH  065%=      5-min Rain = 0
KST4 050239Z 13009KT 10/04 A301 RMK A01 T01030041  RH  066%=      5-min Rain = 0
KST4 050240Z 13010KT 10/04 A301 RMK A01 T01020041  RH  066%=      5-min Rain = 0
KST4 050241Z 13009KT 10/04 A301 RMK A01 T01020041  RH  066%=      5-min Rain = 0
KST4 050242Z 13009KT 10/04 A301 RMK A01 T01010041  RH  066%=      5-min Rain = 0
KST4 050243Z 13009KT 10/04 A301 RMK A01 T01020041  RH  066%=      5-min Rain = 0
KST4 050244Z 13009KT 10/04 A301 RMK A01 T01010041  RH  066%=      5-min Rain = 0
KST4 050245Z 13009KT 10/04 A301 RMK A01 T01020041  RH  066%=      5-min Rain = 0
KST4 050246Z 13009KT 10/04 A301 RMK A01 T01010041  RH  066%=      5-min Rain = 0
KST4 050247Z 13010KT 10/04 A301 RMK A01 T01010041  RH  066%=      5-min Rain = 0
KST4 050248Z 13010KT 10/04 A301 RMK A01 T01010040  RH  066%=      5-min Rain = 0
KST4 050249Z 13010KT 10/04 A301 RMK A01 T01010041  RH  066%=      5-min Rain = 0
KST4 050250Z 13010KT 10/04 A301 RMK A01 T01010041  RH  066%=      5-min Rain = 0
KST4 050251Z 13011KT 10/04 A301 RMK A01 T01000041  RH  067%=      5-min Rain = 0
KST4 050252Z 13010KT 10/04 A301 RMK A01 T01000041  RH  067%=      5-min Rain = 0
KST4 050253Z 13011KT 10/04 A301 RMK A01 T00990041  RH  067%=      5-min Rain = 0
KST4 050254Z 13011KT 10/04 A301 RMK A01 T00990041  RH  067%=      5-min Rain = 0
KST4 050255Z 13011KT 10/04 A301 RMK A01 T00990041  RH  067%=      5-min Rain = 0
KST4 050256Z 13011KT 10/04 A301 RMK A01 T00990041  RH  067%=      5-min Rain = 0
KST4 050257Z 12011KT 10/04 A301 RMK A01 T00990040  RH  067%=      5-min Rain = 0
KST4 050258Z 12011KT 10/04 A301 RMK A01 T00990040  RH  067%=      5-min Rain = 0
KST4 050259Z 12011KT 10/04 A301 RMK A01 T00990040  RH  067%=      5-min Rain = 0
KST4 050300Z 12010KT 10/04 A301 RMK A01 T00990041  RH  067%=      5-min Rain = 0
KST4 050301Z 12010KT 10/04 A301 RMK A01 T00990041  RH  067%=      5-min Rain = 0
KST4 050302Z 12010KT 10/04 A301 RMK A01 T00980040  RH  067%=      5-min Rain = 0
KST4 050303Z 12010KT 10/04 A301 RMK A01 T00980040  RH  067%=      5-min Rain = 0
KST4 050304Z 12010KT 10/04 A301 RMK A01 T00980040  RH  067%=      5-min Rain = 0
KST4 050305Z 12010KT 10/04 A301 RMK A01 T00970040  RH  068%=      5-min Rain = 0
KST4 050306Z 12010KT 10/04 A301 RMK A01 T00970040  RH  068%=      5-min Rain = 0
KST4 050307Z 12010KT 10/04 A301 RMK A01 T00960040  RH  068%=      5-min Rain = 0
KST4 050308Z 12009KT 10/04 A301 RMK A01 T00960040  RH  068%=      5-min Rain = 0
KST4 050309Z 12009KT 10/04 A301 RMK A01 T00960040  RH  068%=      5-min Rain = 0
KST4 050310Z 12009KT 10/04 A301 RMK A01 T00960040  RH  068%=      5-min Rain = 0
KST4 050311Z 12009KT 10/04 A301 RMK A01 T00960040  RH  068%=      5-min Rain = 0
KST4 050312Z 12009KT 10/04 A301 RMK A01 T00960040  RH  068%=      5-min Rain = 0
KST4 050313Z 12010KT 10/04 A301 RMK A01 T00960040  RH  068%=      5-min Rain = 0
KST4 050314Z 12010KT 10/04 A301 RMK A01 T00950039  RH  068%=      5-min Rain = 0
KST4 050315Z 13010KT 10/04 A301 RMK A01 T00960039  RH  068%=      5-min Rain = 0
KST4 050316Z 12010KT 10/04 A301 RMK A01 T00960039  RH  068%=      5-min Rain = 0
KST4 050317Z 12010KT 10/04 A301 RMK A01 T00960039  RH  067%=      5-min Rain = 0
KST4 050318Z 12010KT 10/04 A301 RMK A01 T00960038  RH  067%=      5-min Rain = 0
KST4 050319Z 12010KT 10/04 A301 RMK A01 T00960038  RH  067%=      5-min Rain = 0
KST4 050320Z 12010KT 10/04 A301 RMK A01 T00960037  RH  067%=      5-min Rain = 0
KST4 050321Z 12010KT 10/04 A301 RMK A01 T00970037  RH  067%=      5-min Rain = 0
KST4 050322Z 12010KT 10/04 A301 RMK A01 T00970037  RH  066%=      5-min Rain = 0
KST4 050323Z 12010KT 10/04 A301 RMK A01 T00970037  RH  066%=      5-min Rain = 0
KST4 050324Z 12010KT 10/04 A301 RMK A01 T00960036  RH  066%=      5-min Rain = 0
KST4 050325Z 12010KT 10/04 A301 RMK A01 T00960035  RH  066%=      5-min Rain = 0
KST4 050326Z 12010KT 10/04 A301 RMK A01 T00960036  RH  066%=      5-min Rain = 0
KST4 050327Z 11010KT 10/04 A301 RMK A01 T00960036  RH  066%=      5-min Rain = 0
KST4 050328Z 11010KT 10/04 A301 RMK A01 T00950036  RH  067%=      5-min Rain = 0
KST4 050329Z 12011KT 10/04 A301 RMK A01 T00950037  RH  067%=      5-min Rain = 0
KST4 050330Z 12011KT 09/04 A301 RMK A01 T00940037  RH  067%=      5-min Rain = 0
KST4 050331Z 12011KT 09/04 A301 RMK A01 T00940037  RH  068%=      5-min Rain = 0
KST4 050332Z 11012KT 09/04 A301 RMK A01 T00940037  RH  068%=      5-min Rain = 0
KST4 050333Z 11011KT 09/04 A301 RMK A01 T00940036  RH  067%=      5-min Rain = 0
KST4 050334Z 12011KT 09/04 A301 RMK A01 T00940036  RH  067%=      5-min Rain = 0
KST4 050335Z 11010KT 10/04 A301 RMK A01 T00950035  RH  067%=      5-min Rain = 0
KST4 050336Z 12011KT 10/04 A301 RMK A01 T00950036  RH  067%=      5-min Rain = 0
KST4 050337Z 12010KT 10/04 A301 RMK A01 T00950036  RH  067%=      5-min Rain = 0
KST4 050338Z 12010KT 09/04 A301 RMK A01 T00940035  RH  066%=      5-min Rain = 0
KST4 050339Z 12011KT 09/04 A301 RMK A01 T00940035  RH  067%=      5-min Rain = 0
KST4 050340Z 12011KT 09/04 A301 RMK A01 T00940035  RH  067%=      5-min Rain = 0
KST4 050341Z 12011KT 09/04 A301 RMK A01 T00940035  RH  067%=      5-min Rain = 0
KST4 050342Z 12011KT 09/04 A301 RMK A01 T00940035  RH  067%=      5-min Rain = 0
KST4 050343Z 12011KT 09/04 A301 RMK A01 T00940035  RH  066%=      5-min Rain = 0
KST4 050344Z 12011KT 09/04 A301 RMK A01 T00940035  RH  067%=      5-min Rain = 0
KST4 050345Z 12011KT 09/04 A301 RMK A01 T00940035  RH  066%=      5-min Rain = 0
KST4 050346Z 12011KT 09/03 A301 RMK A01 T00940034  RH  066%=      5-min Rain = 0
KST4 050347Z 12011KT 09/03 A301 RMK A01 T00940033  RH  066%=      5-min Rain = 0
KST4 050348Z 12012KT 10/03 A301 RMK A01 T00950033  RH  065%=      5-min Rain = 0
KST4 050349Z 11012KT 10/03 A301 RMK A01 T00960033  RH  065%=      5-min Rain = 0
KST4 050350Z 11011KT 10/03 A301 RMK A01 T00960033  RH  065%=      5-min Rain = 0
KST4 050351Z 11011KT 10/03 A301 RMK A01 T00960033  RH  065%=      5-min Rain = 0
KST4 050352Z 11011KT 10/03 A301 RMK A01 T00970033  RH  065%=      5-min Rain = 0
KST4 050353Z 11011KT 10/03 A301 RMK A01 T00970033  RH  064%=      5-min Rain = 0
KST4 050354Z 11012KT 10/03 A301 RMK A01 T00980032  RH  063%=      5-min Rain = 0
KST4 050355Z 12011KT 10/03 A301 RMK A01 T00990032  RH  063%=      5-min Rain = 0
KST4 050356Z 11011KT 10/03 A301 RMK A01 T00990032  RH  063%=      5-min Rain = 0
KST4 050357Z 11012KT 10/03 A301 RMK A01 T00990032  RH  063%=      5-min Rain = 0
KST4 050358Z 12011KT 10/03 A301 RMK A01 T01000032  RH  063%=      5-min Rain = 0
KST4 050359Z 12012KT 10/03 A301 RMK A01 T01000031  RH  062%=      5-min Rain = 0
KST4 050400Z 12011KT 10/03 A3011 RMK A01 T01010030  RH  061%=      5-min Rain = 0
KST4 050401Z 11010KT 10/03 A3011 RMK A01 T01020030  RH  061%=      5-min Rain = 0
KST4 050402Z 12011KT 10/03 A3011 RMK A01 T01020030  RH  061%=      5-min Rain = 0
KST4 050403Z 12012KT 10/03 A3011 RMK A01 T01020029  RH  060%=      5-min Rain = 0
KST4 050404Z 11012KT 10/03 A3011 RMK A01 T01020028  RH  060%=      5-min Rain = 0
KST4 050405Z 11011KT 10/03 A3011 RMK A01 T01030028  RH  060%=      5-min Rain = 0
KST4 050406Z 11012KT 10/03 A3011 RMK A01 T01030029  RH  060%=      5-min Rain = 0
KST4 050407Z 11011KT 10/03 A3011 RMK A01 T01030029  RH  060%=      5-min Rain = 0
KST4 050408Z 11011KT 10/03 A3011 RMK A01 T01030027  RH  060%=      5-min Rain = 0
KST4 050409Z 11012KT 10/03 A3011 RMK A01 T01030028  RH  060%=      5-min Rain = 0
KST4 050410Z 11011KT 10/03 A3011 RMK A01 T01030029  RH  060%=      5-min Rain = 0
KST4 050411Z 11011KT 10/03 A3011 RMK A01 T01030029  RH  060%=      5-min Rain = 0
KST4 050412Z 11011KT 10/03 A3011 RMK A01 T01030029  RH  060%=      5-min Rain = 0
KST4 050413Z 11011KT 10/03 A3011 RMK A01 T01030027  RH  059%=      5-min Rain = 0
KST4 050414Z 12012KT 10/03 A3011 RMK A01 T01030028  RH  060%=      5-min Rain = 0
KST4 050415Z 12012KT 10/03 A3011 RMK A01 T01030027  RH  059%=      5-min Rain = 0
KST4 050416Z 12012KT 10/03 A3011 RMK A01 T01030028  RH  060%=      5-min Rain = 0
KST4 050417Z 12011KT 10/03 A3011 RMK A01 T01030028  RH  060%=      5-min Rain = 0
KST4 050418Z 12011KT 10/03 A3011 RMK A01 T01030028  RH  060%=      5-min Rain = 0
KST4 050419Z 12010KT 10/03 A3011 RMK A01 T01020029  RH  060%=      5-min Rain = 0
KST4 050420Z 12010KT 10/03 A3011 RMK A01 T01020028  RH  060%=      5-min Rain = 0
KST4 050421Z 12011KT 10/03 A3011 RMK A01 T01020028  RH  060%=      5-min Rain = 0
KST4 050422Z 12011KT 10/03 A3011 RMK A01 T01030027  RH  060%=      5-min Rain = 0
KST4 050423Z 12010KT 10/03 A3011 RMK A01 T01020027  RH  060%=      5-min Rain = 0
KST4 050424Z 12010KT 10/03 A3011 RMK A01 T01030027  RH  060%=      5-min Rain = 0
KST4 050425Z 12011KT 10/03 A3011 RMK A01 T01020026  RH  059%=      5-min Rain = 0
KST4 050426Z 12009KT 10/03 A3011 RMK A01 T01030027  RH  059%=      5-min Rain = 0
KST4 050427Z 12009KT 10/03 A3011 RMK A01 T01030028  RH  060%=      5-min Rain = 0
KST4 050428Z 12009KT 10/03 A3011 RMK A01 T01020029  RH  060%=      5-min Rain = 0
KST4 050429Z 12010KT 10/03 A3011 RMK A01 T01020028  RH  060%=      5-min Rain = 0
KST4 050430Z 12009KT 10/03 A3011 RMK A01 T01010027  RH  060%=      5-min Rain = 0
KST4 050431Z 12009KT 10/03 A3011 RMK A01 T01010028  RH  060%=      5-min Rain = 0
KST4 050432Z 12009KT 10/03 A3011 RMK A01 T01010028  RH  060%=      5-min Rain = 0
KST4 050433Z 12009KT 10/03 A3011 RMK A01 T01010028  RH  060%=      5-min Rain = 0
KST4 050434Z 12009KT 10/03 A3011 RMK A01 T01020028  RH  060%=      5-min Rain = 0
KST4 050435Z 12010KT 10/03 A3011 RMK A01 T01010028  RH  061%=      5-min Rain = 0
KST4 050436Z 12009KT 10/03 A3012 RMK A01 T01010028  RH  060%=      5-min Rain = 0
KST4 050437Z 12009KT 10/03 A3012 RMK A01 T01020028  RH  060%=      5-min Rain = 0
KST4 050438Z 12009KT 10/03 A3012 RMK A01 T01020029  RH  061%=      5-min Rain = 0
KST4 050439Z 12009KT 10/03 A3012 RMK A01 T01010028  RH  060%=      5-min Rain = 0
KST4 050440Z 12009KT 10/03 A3012 RMK A01 T01010027  RH  060%=      5-min Rain = 0
KST4 050441Z 12009KT 10/03 A3012 RMK A01 T01020028  RH  060%=      5-min Rain = 0
KST4 050442Z 12009KT 10/03 A3012 RMK A01 T01020028  RH  060%=      5-min Rain = 0
KST4 050443Z 12009KT 10/03 A3012 RMK A01 T01020027  RH  060%=      5-min Rain = 0
KST4 050444Z 12010KT 10/03 A3012 RMK A01 T01020027  RH  060%=      5-min Rain = 0
KST4 050445Z 12009KT 10/03 A3012 RMK A01 T01020025  RH  059%=      5-min Rain = 0
KST4 050446Z 12010KT 10/03 A3012 RMK A01 T01020026  RH  059%=      5-min Rain = 0
KST4 050447Z 13010KT 10/03 A3012 RMK A01 T01030027  RH  059%=      5-min Rain = 0
KST4 050448Z 13009KT 10/03 A3012 RMK A01 T01020028  RH  060%=      5-min Rain = 0
KST4 050449Z 13009KT 10/03 A3012 RMK A01 T01020027  RH  060%=      5-min Rain = 0
KST4 050450Z 13009KT 10/03 A3012 RMK A01 T01020028  RH  060%=      5-min Rain = 0
KST4 050451Z 13010KT 10/03 A3012 RMK A01 T01010029  RH  061%=      5-min Rain = 0
KST4 050452Z 13009KT 10/03 A3012 RMK A01 T01010027  RH  060%=      5-min Rain = 0
KST4 050453Z 13009KT 10/03 A3012 RMK A01 T01010028  RH  061%=      5-min Rain = 0
KST4 050454Z 13008KT 10/03 A3012 RMK A01 T01010029  RH  061%=      5-min Rain = 0
KST4 050455Z 13009KT 10/03 A3012 RMK A01 T01000029  RH  061%=      5-min Rain = 0
KST4 050456Z 13009KT 10/03 A3012 RMK A01 T01000029  RH  061%=      5-min Rain = 0
KST4 050457Z 13008KT 10/03 A3012 RMK A01 T01000029  RH  061%=      5-min Rain = 0
KST4 050458Z 13008KT 10/03 A3012 RMK A01 T00990030  RH  062%=      5-min Rain = 0
KST4 050459Z 13008KT 10/03 A3012 RMK A01 T00990030  RH  062%=      5-min Rain = 0

Page generated in 0.1141 seconds.